Observation data for Stamford on 01/11/2018      Previous  Date  Next       Current Mesonet Observations  Soil Data  Daily Summary Page  Observations in Plain Language
KST2 110600Z 20013KT 12/03 A2965 RMK A01 T01230028  RH  052%=      5-min Rain = 0
KST2 110601Z 20014KT 12/03 A2965 RMK A01 T01240028  RH  052%=      5-min Rain = 0
KST2 110602Z 20014KT 13/03 A2965 RMK A01 T01250028  RH  052%=      5-min Rain = 0
KST2 110603Z 20014G19KT 13/03 A2965 RMK A01 T01250028  RH  051%=      5-min Rain = 0
KST2 110604Z 20014KT 13/03 A2965 RMK A01 T01270028  RH  051%=      5-min Rain = 0
KST2 110605Z 20016KT 13/03 A2965 RMK A01 T01280028  RH  051%=      5-min Rain = 0
KST2 110606Z 20017KT 13/03 A2965 RMK A01 T01290028  RH  050%=      5-min Rain = 0
KST2 110607Z 20017KT 13/03 A2965 RMK A01 T01300028  RH  050%=      5-min Rain = 0
KST2 110608Z 21017KT 13/03 A2965 RMK A01 T01330028  RH  049%=      5-min Rain = 0
KST2 110609Z 21016KT 13/03 A2965 RMK A01 T01340028  RH  049%=      5-min Rain = 0
KST2 110610Z 21015KT 13/03 A2965 RMK A01 T01340028  RH  049%=      5-min Rain = 0
KST2 110611Z 20014KT 13/03 A2965 RMK A01 T01330028  RH  049%=      5-min Rain = 0
KST2 110612Z 20016KT 13/03 A2965 RMK A01 T01320028  RH  049%=      5-min Rain = 0
KST2 110613Z 20014KT 13/03 A2965 RMK A01 T01310027  RH  049%=      5-min Rain = 0
KST2 110614Z 20016KT 13/03 A2965 RMK A01 T01310027  RH  049%=      5-min Rain = 0
KST2 110615Z 20015KT 13/03 A2965 RMK A01 T01320027  RH  049%=      5-min Rain = 0
KST2 110616Z 20014KT 13/03 A2965 RMK A01 T01320027  RH  049%=      5-min Rain = 0
KST2 110617Z 20015KT 13/03 A2965 RMK A01 T01310027  RH  049%=      5-min Rain = 0
KST2 110618Z 20015KT 13/03 A2965 RMK A01 T01320027  RH  049%=      5-min Rain = 0
KST2 110619Z 20013KT 13/03 A2965 RMK A01 T01310027  RH  049%=      5-min Rain = 0
KST2 110620Z 20016KT 13/03 A2965 RMK A01 T01310027  RH  049%=      5-min Rain = 0
KST2 110621Z 20014KT 13/03 A2965 RMK A01 T01310028  RH  049%=      5-min Rain = 0
KST2 110622Z 20015KT 13/03 A2964 RMK A01 T01300027  RH  050%=      5-min Rain = 0
KST2 110623Z 20015KT 13/03 A2964 RMK A01 T01300027  RH  050%=      5-min Rain = 0
KST2 110624Z 20013KT 13/03 A2964 RMK A01 T01300027  RH  050%=      5-min Rain = 0
KST2 110625Z 20012KT 13/03 A2964 RMK A01 T01300028  RH  050%=      5-min Rain = 0
KST2 110626Z 20012KT 13/03 A2964 RMK A01 T01280027  RH  050%=      5-min Rain = 0
KST2 110627Z 20011KT 13/03 A2964 RMK A01 T01270027  RH  051%=      5-min Rain = 0
KST2 110628Z 20010KT 13/03 A2964 RMK A01 T01250027  RH  051%=      5-min Rain = 0
KST2 110629Z 20012KT 12/03 A2964 RMK A01 T01240027  RH  052%=      5-min Rain = 0
KST2 110630Z 20013KT 12/03 A2964 RMK A01 T01240027  RH  052%=      5-min Rain = 0
KST2 110631Z 20013KT 12/03 A2964 RMK A01 T01240027  RH  052%=      5-min Rain = 0
KST2 110632Z 20012KT 12/03 A2964 RMK A01 T01240027  RH  052%=      5-min Rain = 0
KST2 110633Z 20013KT 12/03 A2964 RMK A01 T01240027  RH  051%=      5-min Rain = 0
KST2 110634Z 20012KT 12/03 A2964 RMK A01 T01240027  RH  051%=      5-min Rain = 0
KST2 110635Z 20012KT 12/03 A2964 RMK A01 T01240027  RH  052%=      5-min Rain = 0
KST2 110636Z 20012KT 12/03 A2964 RMK A01 T01230027  RH  052%=      5-min Rain = 0
KST2 110637Z 20013KT 12/03 A2964 RMK A01 T01230027  RH  052%=      5-min Rain = 0
KST2 110638Z 20013KT 12/03 A2964 RMK A01 T01230027  RH  052%=      5-min Rain = 0
KST2 110639Z 20014KT 12/03 A2964 RMK A01 T01220027  RH  052%=      5-min Rain = 0
KST2 110640Z 20012KT 12/03 A2964 RMK A01 T01220027  RH  052%=      5-min Rain = 0
KST2 110641Z 20013KT 12/03 A2964 RMK A01 T01220026  RH  052%=      5-min Rain = 0
KST2 110642Z 20012KT 12/03 A2964 RMK A01 T01220027  RH  052%=      5-min Rain = 0
KST2 110643Z 20014KT 12/03 A2964 RMK A01 T01220027  RH  052%=      5-min Rain = 0
KST2 110644Z 20012KT 12/03 A2964 RMK A01 T01220027  RH  052%=      5-min Rain = 0
KST2 110645Z 20013KT 12/03 A2964 RMK A01 T01230027  RH  052%=      5-min Rain = 0
KST2 110646Z 20013KT 12/03 A2964 RMK A01 T01230027  RH  052%=      5-min Rain = 0
KST2 110647Z 20013KT 12/03 A2964 RMK A01 T01230026  RH  052%=      5-min Rain = 0
KST2 110648Z 20012KT 12/03 A2964 RMK A01 T01230026  RH  052%=      5-min Rain = 0
KST2 110649Z 20012KT 12/03 A2964 RMK A01 T01230027  RH  052%=      5-min Rain = 0
KST2 110650Z 21011KT 12/03 A2964 RMK A01 T01220026  RH  052%=      5-min Rain = 0
KST2 110651Z 21012KT 12/03 A2964 RMK A01 T01210026  RH  052%=      5-min Rain = 0
KST2 110652Z 20012KT 12/03 A2964 RMK A01 T01210026  RH  052%=      5-min Rain = 0
KST2 110653Z 20012KT 12/03 A2964 RMK A01 T01210026  RH  052%=      5-min Rain = 0
KST2 110654Z 21014KT 12/03 A2963 RMK A01 T01220026  RH  052%=      5-min Rain = 0
KST2 110655Z 20011KT 12/03 A2963 RMK A01 T01240026  RH  051%=      5-min Rain = 0
KST2 110656Z 20012KT 12/03 A2963 RMK A01 T01240026  RH  051%=      5-min Rain = 0
KST2 110657Z 20012KT 12/03 A2963 RMK A01 T01230026  RH  051%=      5-min Rain = 0
KST2 110658Z 19011KT 12/03 A2963 RMK A01 T01230026  RH  052%=      5-min Rain = 0
KST2 110659Z 20011KT 12/03 A2963 RMK A01 T01210025  RH  052%=      5-min Rain = 0
KST2 110700Z 19012KT 12/03 A2963 RMK A01 T01200026  RH  053%=      5-min Rain = 0
KST2 110701Z 20014KT 12/03 A2963 RMK A01 T01200026  RH  053%=      5-min Rain = 0
KST2 110702Z 21015G20KT 12/03 A2963 RMK A01 T01220026  RH  052%=      5-min Rain = 0
KST2 110703Z 21015KT 13/03 A2963 RMK A01 T01250027  RH  051%=      5-min Rain = 0
KST2 110704Z 21015KT 13/03 A2963 RMK A01 T01260027  RH  051%=      5-min Rain = 0
KST2 110705Z 20013KT 13/03 A2963 RMK A01 T01260026  RH  051%=      5-min Rain = 0
KST2 110706Z 20013KT 13/03 A2963 RMK A01 T01260026  RH  051%=      5-min Rain = 0
KST2 110707Z 20015G20KT 13/03 A2963 RMK A01 T01250027  RH  051%=      5-min Rain = 0
KST2 110708Z 20013KT 13/03 A2963 RMK A01 T01250026  RH  051%=      5-min Rain = 0
KST2 110709Z 20013KT 12/03 A2963 RMK A01 T01240026  RH  051%=      5-min Rain = 0
KST2 110710Z 20013KT 12/03 A2963 RMK A01 T01230026  RH  052%=      5-min Rain = 0
KST2 110711Z 21014KT 12/03 A2963 RMK A01 T01230026  RH  052%=      5-min Rain = 0
KST2 110712Z 21013KT 12/03 A2963 RMK A01 T01230026  RH  052%=      5-min Rain = 0
KST2 110713Z 21012KT 12/03 A2963 RMK A01 T01230026  RH  052%=      5-min Rain = 0
KST2 110714Z 21011KT 12/03 A2963 RMK A01 T01220026  RH  052%=      5-min Rain = 0
KST2 110715Z 21011KT 12/03 A2963 RMK A01 T01200026  RH  053%=      5-min Rain = 0
KST2 110716Z 21011KT 12/03 A2963 RMK A01 T01190026  RH  053%=      5-min Rain = 0
KST2 110717Z 21011KT 12/03 A2963 RMK A01 T01180026  RH  053%=      5-min Rain = 0
KST2 110718Z 21011KT 12/03 A2963 RMK A01 T01170025  RH  053%=      5-min Rain = 0
KST2 110719Z 21012KT 12/03 A2963 RMK A01 T01160025  RH  054%=      5-min Rain = 0
KST2 110720Z 21012KT 12/03 A2962 RMK A01 T01170025  RH  053%=      5-min Rain = 0
KST2 110721Z 22012KT 12/03 A2963 RMK A01 T01180026  RH  053%=      5-min Rain = 0
KST2 110722Z 22011KT 12/03 A2963 RMK A01 T01190026  RH  053%=      5-min Rain = 0
KST2 110723Z 23012KT 12/03 A2963 RMK A01 T01200026  RH  053%=      5-min Rain = 0
KST2 110724Z 23012KT 12/03 A2963 RMK A01 T01190026  RH  053%=      5-min Rain = 0
KST2 110725Z 22011KT 12/03 A2962 RMK A01 T01190026  RH  053%=      5-min Rain = 0
KST2 110726Z 23012KT 12/03 A2962 RMK A01 T01190026  RH  053%=      5-min Rain = 0
KST2 110727Z 23013KT 12/03 A2962 RMK A01 T01180026  RH  053%=      5-min Rain = 0
KST2 110728Z 22013KT 12/03 A2962 RMK A01 T01180026  RH  053%=      5-min Rain = 0
KST2 110729Z 23012KT 12/03 A2962 RMK A01 T01180026  RH  053%=      5-min Rain = 0
KST2 110730Z 23014KT 12/03 A2962 RMK A01 T01190026  RH  053%=      5-min Rain = 0
KST2 110731Z 24017G22KT 12/03 A2962 RMK A01 T01200028  RH  053%=      5-min Rain = 0
KST2 110732Z 23018KT 13/03 A2962 RMK A01 T01260030  RH  052%=      5-min Rain = 0
KST2 110733Z 23015KT 13/03 A2962 RMK A01 T01290031  RH  051%=      5-min Rain = 0
KST2 110734Z 23014KT 13/03 A2962 RMK A01 T01290030  RH  051%=      5-min Rain = 0
KST2 110735Z 23017KT 13/03 A2962 RMK A01 T01280030  RH  051%=      5-min Rain = 0
KST2 110736Z 23017G22KT 13/03 A2962 RMK A01 T01280030  RH  051%=      5-min Rain = 0
KST2 110737Z 23013G18KT 13/03 A2962 RMK A01 T01280030  RH  051%=      5-min Rain = 0
KST2 110738Z 23015KT 13/03 A2962 RMK A01 T01270030  RH  052%=      5-min Rain = 0
KST2 110739Z 23014KT 13/03 A2962 RMK A01 T01260030  RH  052%=      5-min Rain = 0
KST2 110740Z 23016KT 13/03 A2962 RMK A01 T01260031  RH  052%=      5-min Rain = 0
KST2 110741Z 23016KT 13/03 A2962 RMK A01 T01250031  RH  053%=      5-min Rain = 0
KST2 110742Z 23016KT 13/03 A2962 RMK A01 T01250032  RH  053%=      5-min Rain = 0
KST2 110743Z 23016KT 12/03 A2961 RMK A01 T01240031  RH  053%=      5-min Rain = 0
KST2 110744Z 23014KT 12/03 A2962 RMK A01 T01240031  RH  053%=      5-min Rain = 0
KST2 110745Z 23014KT 12/03 A2962 RMK A01 T01230032  RH  054%=      5-min Rain = 0
KST2 110746Z 23015KT 12/03 A2962 RMK A01 T01220032  RH  054%=      5-min Rain = 0
KST2 110747Z 23015KT 12/03 A2961 RMK A01 T01220032  RH  054%=      5-min Rain = 0
KST2 110748Z 24014KT 12/03 A2962 RMK A01 T01220032  RH  054%=      5-min Rain = 0
KST2 110749Z 23014KT 12/03 A2961 RMK A01 T01200032  RH  055%=      5-min Rain = 0
KST2 110750Z 24016KT 12/03 A2961 RMK A01 T01200033  RH  055%=      5-min Rain = 0
KST2 110751Z 23014KT 12/03 A2961 RMK A01 T01210033  RH  055%=      5-min Rain = 0
KST2 110752Z 24016KT 12/03 A2961 RMK A01 T01200033  RH  055%=      5-min Rain = 0
KST2 110753Z 24016KT 12/03 A2961 RMK A01 T01200033  RH  055%=      5-min Rain = 0
KST2 110754Z 23015KT 12/03 A2961 RMK A01 T01200033  RH  055%=      5-min Rain = 0
KST2 110755Z 24014KT 12/03 A2961 RMK A01 T01190033  RH  056%=      5-min Rain = 0
KST2 110756Z 24014KT 12/03 A2961 RMK A01 T01180033  RH  056%=      5-min Rain = 0
KST2 110757Z 24015KT 12/03 A2961 RMK A01 T01180033  RH  056%=      5-min Rain = 0
KST2 110758Z 24014KT 12/03 A2961 RMK A01 T01170033  RH  056%=      5-min Rain = 0
KST2 110759Z 24014KT 12/03 A2961 RMK A01 T01170033  RH  056%=      5-min Rain = 0
KST2 110800Z 24013KT 12/03 A2961 RMK A01 T01170033  RH  056%=      5-min Rain = 0
KST2 110801Z 25013KT 12/03 A2961 RMK A01 T01160033  RH  057%=      5-min Rain = 0
KST2 110802Z 25013KT 12/03 A2961 RMK A01 T01160033  RH  057%=      5-min Rain = 0
KST2 110803Z 25015KT 12/03 A2961 RMK A01 T01160033  RH  057%=      5-min Rain = 0
KST2 110804Z 25016G21KT 12/03 A2961 RMK A01 T01190034  RH  056%=      5-min Rain = 0
KST2 110805Z 25018G25KT 12/03 A2961 RMK A01 T01220034  RH  055%=      5-min Rain = 0
KST2 110806Z 25021KT 13/03 A2961 RMK A01 T01260034  RH  053%=      5-min Rain = 0
KST2 110807Z 25021KT 13/03 A2961 RMK A01 T01300034  RH  052%=      5-min Rain = 0
KST2 110808Z 25022KT 13/03 A2961 RMK A01 T01320033  RH  051%=      5-min Rain = 0
KST2 110809Z 25020KT 13/03 A2961 RMK A01 T01330034  RH  051%=      5-min Rain = 0
KST2 110810Z 25022G28KT 13/03 A2961 RMK A01 T01330033  RH  051%=      5-min Rain = 0
KST2 110811Z 25023KT 13/03 A296 RMK A01 T01330033  RH  051%=      5-min Rain = 0
KST2 110812Z 25022G28KT 13/03 A296 RMK A01 T01340033  RH  050%=      5-min Rain = 0
KST2 110813Z 25022G27KT 13/03 A296 RMK A01 T01340033  RH  050%=      5-min Rain = 0
KST2 110814Z 25021G27KT 13/03 A2961 RMK A01 T01340033  RH  050%=      5-min Rain = 0
KST2 110815Z 25020KT 13/03 A296 RMK A01 T01340033  RH  051%=      5-min Rain = 0
KST2 110816Z 25021KT 13/03 A296 RMK A01 T01330033  RH  051%=      5-min Rain = 0
KST2 110817Z 25022KT 13/03 A296 RMK A01 T01330033  RH  051%=      5-min Rain = 0
KST2 110818Z 25020KT 13/03 A296 RMK A01 T01330033  RH  051%=      5-min Rain = 0
KST2 110819Z 25022G27KT 13/03 A296 RMK A01 T01330033  RH  051%=      5-min Rain = 0
KST2 110820Z 25021G26KT 13/03 A296 RMK A01 T01330033  RH  051%=      5-min Rain = 0
KST2 110821Z 25023KT 13/03 A296 RMK A01 T01330033  RH  051%=      5-min Rain = 0
KST2 110822Z 26021G29KT 13/03 A296 RMK A01 T01330033  RH  051%=      5-min Rain = 0
KST2 110823Z 25023KT 13/03 A296 RMK A01 T01330033  RH  051%=      5-min Rain = 0
KST2 110824Z 25021G27KT 13/03 A296 RMK A01 T01340033  RH  050%=      5-min Rain = 0
KST2 110825Z 25021KT 13/03 A296 RMK A01 T01340033  RH  050%=      5-min Rain = 0
KST2 110826Z 25020KT 13/03 A296 RMK A01 T01330033  RH  051%=      5-min Rain = 0
KST2 110827Z 25022KT 13/03 A296 RMK A01 T01330033  RH  051%=      5-min Rain = 0
KST2 110828Z 25020KT 13/03 A296 RMK A01 T01320032  RH  051%=      5-min Rain = 0
KST2 110829Z 25022KT 13/03 A296 RMK A01 T01320032  RH  051%=      5-min Rain = 0
KST2 110830Z 26021G26KT 13/03 A296 RMK A01 T01320033  RH  051%=      5-min Rain = 0
KST2 110831Z 26022G27KT 13/03 A296 RMK A01 T01320032  RH  051%=      5-min Rain = 0
KST2 110832Z 25021KT 13/03 A296 RMK A01 T01320033  RH  051%=      5-min Rain = 0
KST2 110833Z 25020G28KT 13/03 A296 RMK A01 T01320033  RH  051%=      5-min Rain = 0
KST2 110834Z 25021KT 13/03 A296 RMK A01 T01320032  RH  051%=      5-min Rain = 0
KST2 110835Z 25021G26KT 13/03 A296 RMK A01 T01320032  RH  051%=      5-min Rain = 0
KST2 110836Z 25018KT 13/03 A296 RMK A01 T01320033  RH  051%=      5-min Rain = 0
KST2 110837Z 25022KT 13/03 A296 RMK A01 T01300032  RH  051%=      5-min Rain = 0
KST2 110838Z 25019KT 13/03 A2961 RMK A01 T01310032  RH  051%=      5-min Rain = 0
KST2 110839Z 25021KT 13/03 A2961 RMK A01 T01310032  RH  051%=      5-min Rain = 0
KST2 110840Z 25021KT 13/03 A2961 RMK A01 T01310032  RH  051%=      5-min Rain = 0
KST2 110841Z 25020KT 13/03 A2961 RMK A01 T01310032  RH  051%=      5-min Rain = 0
KST2 110842Z 26020G25KT 13/03 A2961 RMK A01 T01310032  RH  051%=      5-min Rain = 0
KST2 110843Z 25022KT 13/03 A2961 RMK A01 T01310032  RH  051%=      5-min Rain = 0
KST2 110844Z 25020G25KT 13/03 A2961 RMK A01 T01310032  RH  051%=      5-min Rain = 0
KST2 110845Z 25023KT 13/03 A2961 RMK A01 T01320032  RH  051%=      5-min Rain = 0
KST2 110846Z 25019G24KT 13/03 A2961 RMK A01 T01320032  RH  051%=      5-min Rain = 0
KST2 110847Z 25019G24KT 13/03 A2961 RMK A01 T01310032  RH  051%=      5-min Rain = 0
KST2 110848Z 25018KT 13/03 A2961 RMK A01 T01300032  RH  051%=      5-min Rain = 0
KST2 110849Z 25019KT 13/03 A2961 RMK A01 T01290032  RH  052%=      5-min Rain = 0
KST2 110850Z 25019KT 13/03 A2961 RMK A01 T01290032  RH  052%=      5-min Rain = 0
KST2 110851Z 25022KT 13/03 A2961 RMK A01 T01290032  RH  052%=      5-min Rain = 0
KST2 110852Z 25020KT 13/03 A2961 RMK A01 T01290032  RH  052%=      5-min Rain = 0
KST2 110853Z 25018KT 13/03 A2961 RMK A01 T01290032  RH  052%=      5-min Rain = 0
KST2 110854Z 25018KT 13/03 A2961 RMK A01 T01280032  RH  052%=      5-min Rain = 0
KST2 110855Z 25019KT 13/03 A2961 RMK A01 T01270032  RH  052%=      5-min Rain = 0
KST2 110856Z 25019KT 13/03 A2961 RMK A01 T01270032  RH  052%=      5-min Rain = 0
KST2 110857Z 25018G23KT 13/03 A2961 RMK A01 T01280032  RH  052%=      5-min Rain = 0
KST2 110858Z 25018KT 13/03 A2961 RMK A01 T01270032  RH  052%=      5-min Rain = 0
KST2 110859Z 25019G26KT 13/03 A2961 RMK A01 T01270032  RH  052%=      5-min Rain = 0
KST2 110900Z 25019KT 13/03 A2961 RMK A01 T01260031  RH  052%=      5-min Rain = 0
KST2 110901Z 25018KT 13/03 A2961 RMK A01 T01260031  RH  052%=      5-min Rain = 0
KST2 110902Z 25020G25KT 13/03 A2961 RMK A01 T01260032  RH  052%=      5-min Rain = 0
KST2 110903Z 25019KT 13/03 A2961 RMK A01 T01260031  RH  052%=      5-min Rain = 0
KST2 110904Z 25017KT 13/03 A2961 RMK A01 T01260031  RH  053%=      5-min Rain = 0
KST2 110905Z 25018KT 13/03 A2961 RMK A01 T01250031  RH  053%=      5-min Rain = 0
KST2 110906Z 25019KT 13/03 A2961 RMK A01 T01250031  RH  053%=      5-min Rain = 0
KST2 110907Z 25017KT 13/03 A296 RMK A01 T01260031  RH  053%=      5-min Rain = 0
KST2 110908Z 25020KT 13/03 A296 RMK A01 T01250031  RH  053%=      5-min Rain = 0
KST2 110909Z 25019KT 13/03 A296 RMK A01 T01250031  RH  053%=      5-min Rain = 0
KST2 110910Z 25019KT 13/03 A296 RMK A01 T01260031  RH  052%=      5-min Rain = 0
KST2 110911Z 25020KT 13/03 A296 RMK A01 T01260031  RH  052%=      5-min Rain = 0
KST2 110912Z 25021KT 13/03 A296 RMK A01 T01260031  RH  052%=      5-min Rain = 0
KST2 110913Z 25019KT 13/03 A296 RMK A01 T01260031  RH  052%=      5-min Rain = 0
KST2 110914Z 25022KT 13/03 A296 RMK A01 T01260031  RH  052%=      5-min Rain = 0
KST2 110915Z 26018KT 13/03 A296 RMK A01 T01260031  RH  052%=      5-min Rain = 0
KST2 110916Z 26018KT 13/03 A296 RMK A01 T01250031  RH  052%=      5-min Rain = 0
KST2 110917Z 25018KT 13/03 A296 RMK A01 T01250031  RH  053%=      5-min Rain = 0
KST2 110918Z 25017KT 13/03 A296 RMK A01 T01250031  RH  053%=      5-min Rain = 0
KST2 110919Z 25019KT 12/03 A296 RMK A01 T01240031  RH  053%=      5-min Rain = 0
KST2 110920Z 25019KT 12/03 A296 RMK A01 T01230030  RH  053%=      5-min Rain = 0
KST2 110921Z 25018G23KT 12/03 A296 RMK A01 T01230030  RH  053%=      5-min Rain = 0
KST2 110922Z 25019KT 12/03 A296 RMK A01 T01230030  RH  053%=      5-min Rain = 0
KST2 110923Z 25020KT 12/03 A296 RMK A01 T01230031  RH  053%=      5-min Rain = 0
KST2 110924Z 25019KT 12/03 A296 RMK A01 T01230031  RH  053%=      5-min Rain = 0
KST2 110925Z 25020KT 12/03 A296 RMK A01 T01230031  RH  053%=      5-min Rain = 0
KST2 110926Z 25017KT 12/03 A296 RMK A01 T01230031  RH  053%=      5-min Rain = 0
KST2 110927Z 25019KT 12/03 A296 RMK A01 T01220031  RH  054%=      5-min Rain = 0
KST2 110928Z 25019KT 12/03 A296 RMK A01 T01220031  RH  054%=      5-min Rain = 0
KST2 110929Z 25017G22KT 12/03 A2961 RMK A01 T01220031  RH  054%=      5-min Rain = 0
KST2 110930Z 25019KT 12/03 A2961 RMK A01 T01210030  RH  054%=      5-min Rain = 0
KST2 110931Z 25017KT 12/03 A2961 RMK A01 T01210030  RH  054%=      5-min Rain = 0
KST2 110932Z 24016KT 12/03 A2961 RMK A01 T01210030  RH  054%=      5-min Rain = 0
KST2 110933Z 25016G21KT 12/03 A2961 RMK A01 T01200030  RH  054%=      5-min Rain = 0
KST2 110934Z 25018KT 12/03 A2961 RMK A01 T01200030  RH  054%=      5-min Rain = 0
KST2 110935Z 24017KT 12/03 A2961 RMK A01 T01200030  RH  054%=      5-min Rain = 0
KST2 110936Z 24016KT 12/03 A2961 RMK A01 T01210030  RH  054%=      5-min Rain = 0
KST2 110937Z 25018KT 12/03 A2961 RMK A01 T01210030  RH  054%=      5-min Rain = 0
KST2 110938Z 24016KT 12/03 A2961 RMK A01 T01200030  RH  054%=      5-min Rain = 0
KST2 110939Z 24017KT 12/03 A2961 RMK A01 T01200030  RH  054%=      5-min Rain = 0
KST2 110940Z 24018KT 12/03 A2961 RMK A01 T01200030  RH  054%=      5-min Rain = 0
KST2 110941Z 24015KT 12/03 A2961 RMK A01 T01210030  RH  054%=      5-min Rain = 0
KST2 110942Z 24016KT 12/03 A2961 RMK A01 T01210029  RH  054%=      5-min Rain = 0
KST2 110943Z 24017G22KT 12/03 A2961 RMK A01 T01210029  RH  054%=      5-min Rain = 0
KST2 110944Z 24017KT 12/03 A2961 RMK A01 T01210029  RH  053%=      5-min Rain = 0
KST2 110945Z 24016KT 12/03 A2961 RMK A01 T01210029  RH  053%=      5-min Rain = 0
KST2 110946Z 24017G22KT 12/03 A2962 RMK A01 T01210029  RH  053%=      5-min Rain = 0
KST2 110947Z 24018G23KT 12/03 A2962 RMK A01 T01220029  RH  053%=      5-min Rain = 0
KST2 110948Z 24018KT 12/03 A2962 RMK A01 T01220028  RH  053%=      5-min Rain = 0
KST2 110949Z 24017KT 12/03 A2962 RMK A01 T01230029  RH  053%=      5-min Rain = 0
KST2 110950Z 24015KT 12/03 A2962 RMK A01 T01230028  RH  053%=      5-min Rain = 0
KST2 110951Z 24017KT 12/03 A2962 RMK A01 T01220028  RH  053%=      5-min Rain = 0
KST2 110952Z 24017KT 12/03 A2962 RMK A01 T01220029  RH  053%=      5-min Rain = 0
KST2 110953Z 24017KT 12/03 A2962 RMK A01 T01210028  RH  053%=      5-min Rain = 0
KST2 110954Z 24018KT 12/03 A2962 RMK A01 T01220028  RH  053%=      5-min Rain = 0
KST2 110955Z 24016KT 12/03 A2962 RMK A01 T01220028  RH  052%=      5-min Rain = 0
KST2 110956Z 24017KT 12/03 A2962 RMK A01 T01230028  RH  052%=      5-min Rain = 0
KST2 110957Z 24018G24KT 12/03 A2962 RMK A01 T01240028  RH  052%=      5-min Rain = 0
KST2 110958Z 24018KT 13/03 A2962 RMK A01 T01250027  RH  051%=      5-min Rain = 0
KST2 110959Z 24018KT 13/03 A2962 RMK A01 T01250027  RH  051%=      5-min Rain = 0
KST2 111000Z 24020KT 13/03 A2962 RMK A01 T01260027  RH  051%=      5-min Rain = 0
KST2 111001Z 24018G23KT 13/03 A2962 RMK A01 T01260027  RH  051%=      5-min Rain = 0
KST2 111002Z 24020KT 13/03 A2962 RMK A01 T01260026  RH  051%=      5-min Rain = 0
KST2 111003Z 24017KT 13/03 A2962 RMK A01 T01270026  RH  050%=      5-min Rain = 0
KST2 111004Z 24019KT 13/03 A2962 RMK A01 T01270026  RH  050%=      5-min Rain = 0
KST2 111005Z 24019KT 13/03 A2962 RMK A01 T01270026  RH  050%=      5-min Rain = 0
KST2 111006Z 23019G24KT 13/03 A2962 RMK A01 T01270026  RH  050%=      5-min Rain = 0
KST2 111007Z 24018KT 13/03 A2962 RMK A01 T01270025  RH  050%=      5-min Rain = 0
KST2 111008Z 24018KT 13/03 A2962 RMK A01 T01270025  RH  050%=      5-min Rain = 0
KST2 111009Z 24019KT 13/03 A2962 RMK A01 T01270025  RH  050%=      5-min Rain = 0
KST2 111010Z 23020KT 13/03 A2962 RMK A01 T01270025  RH  050%=      5-min Rain = 0
KST2 111011Z 24020KT 13/03 A2962 RMK A01 T01270025  RH  050%=      5-min Rain = 0
KST2 111012Z 24018KT 13/03 A2962 RMK A01 T01280025  RH  050%=      5-min Rain = 0
KST2 111013Z 24018KT 13/03 A2962 RMK A01 T01270025  RH  050%=      5-min Rain = 0
KST2 111014Z 24016KT 13/03 A2962 RMK A01 T01260025  RH  050%=      5-min Rain = 0
KST2 111015Z 24017KT 13/03 A2962 RMK A01 T01260025  RH  050%=      5-min Rain = 0
KST2 111016Z 24014KT 13/03 A2963 RMK A01 T01250025  RH  051%=      5-min Rain = 0
KST2 111017Z 24015KT 12/03 A2963 RMK A01 T01230025  RH  051%=      5-min Rain = 0
KST2 111018Z 24015KT 12/03 A2963 RMK A01 T01230025  RH  051%=      5-min Rain = 0
KST2 111019Z 25015KT 12/03 A2963 RMK A01 T01220025  RH  051%=      5-min Rain = 0
KST2 111020Z 24015KT 12/03 A2963 RMK A01 T01220026  RH  052%=      5-min Rain = 0
KST2 111021Z 24017KT 12/03 A2963 RMK A01 T01220026  RH  052%=      5-min Rain = 0
KST2 111022Z 24015KT 12/03 A2963 RMK A01 T01220026  RH  052%=      5-min Rain = 0
KST2 111023Z 25016KT 12/03 A2962 RMK A01 T01210026  RH  052%=      5-min Rain = 0
KST2 111024Z 25016KT 12/03 A2962 RMK A01 T01210026  RH  052%=      5-min Rain = 0
KST2 111025Z 25017KT 12/03 A2962 RMK A01 T01200027  RH  053%=      5-min Rain = 0
KST2 111026Z 25016KT 12/03 A2962 RMK A01 T01200027  RH  053%=      5-min Rain = 0
KST2 111027Z 25017G22KT 12/03 A2962 RMK A01 T01200027  RH  053%=      5-min Rain = 0
KST2 111028Z 25017KT 12/03 A2962 RMK A01 T01200027  RH  053%=      5-min Rain = 0
KST2 111029Z 25018KT 12/03 A2962 RMK A01 T01200027  RH  053%=      5-min Rain = 0
KST2 111030Z 25017KT 12/03 A2962 RMK A01 T01200027  RH  053%=      5-min Rain = 0
KST2 111031Z 25017KT 12/03 A2962 RMK A01 T01200026  RH  053%=      5-min Rain = 0
KST2 111032Z 26017G22KT 12/03 A2962 RMK A01 T01190026  RH  053%=      5-min Rain = 0
KST2 111033Z 26020KT 12/03 A2962 RMK A01 T01190026  RH  053%=      5-min Rain = 0
KST2 111034Z 26018KT 12/03 A2961 RMK A01 T01190026  RH  053%=      5-min Rain = 0
KST2 111035Z 26019G24KT 12/03 A2961 RMK A01 T01200026  RH  053%=      5-min Rain = 0
KST2 111036Z 26020G26KT 12/03 A2961 RMK A01 T01210026  RH  052%=      5-min Rain = 0
KST2 111037Z 26021KT 12/03 A2961 RMK A01 T01220026  RH  052%=      5-min Rain = 0
KST2 111038Z 26020KT 12/03 A2961 RMK A01 T01220026  RH  052%=      5-min Rain = 0
KST2 111039Z 26022KT 12/03 A2961 RMK A01 T01230026  RH  052%=      5-min Rain = 0
KST2 111040Z 26020G25KT 12/03 A2961 RMK A01 T01230025  RH  051%=      5-min Rain = 0
KST2 111041Z 26020KT 12/03 A2961 RMK A01 T01230026  RH  052%=      5-min Rain = 0
KST2 111042Z 26020KT 12/03 A2961 RMK A01 T01220026  RH  052%=      5-min Rain = 0
KST2 111043Z 26018KT 12/03 A2961 RMK A01 T01220026  RH  052%=      5-min Rain = 0
KST2 111044Z 26021KT 12/03 A2961 RMK A01 T01210026  RH  052%=      5-min Rain = 0
KST2 111045Z 26019KT 12/03 A2961 RMK A01 T01220026  RH  052%=      5-min Rain = 0
KST2 111046Z 26019KT 12/03 A2961 RMK A01 T01210026  RH  052%=      5-min Rain = 0
KST2 111047Z 26018KT 12/03 A2961 RMK A01 T01210026  RH  052%=      5-min Rain = 0
KST2 111048Z 26020KT 12/03 A2961 RMK A01 T01200026  RH  053%=      5-min Rain = 0
KST2 111049Z 26017KT 12/03 A2961 RMK A01 T01200026  RH  053%=      5-min Rain = 0
KST2 111050Z 25018KT 12/03 A2961 RMK A01 T01190026  RH  053%=      5-min Rain = 0
KST2 111051Z 26019KT 12/03 A2961 RMK A01 T01190026  RH  053%=      5-min Rain = 0
KST2 111052Z 26020KT 12/03 A2961 RMK A01 T01190026  RH  053%=      5-min Rain = 0
KST2 111053Z 25017KT 12/03 A2961 RMK A01 T01190026  RH  053%=      5-min Rain = 0
KST2 111054Z 26018KT 12/03 A2961 RMK A01 T01190026  RH  053%=      5-min Rain = 0
KST2 111055Z 26020KT 12/03 A2961 RMK A01 T01190026  RH  053%=      5-min Rain = 0
KST2 111056Z 26019KT 12/03 A2962 RMK A01 T01190026  RH  053%=      5-min Rain = 0
KST2 111057Z 26017KT 12/03 A2962 RMK A01 T01190026  RH  053%=      5-min Rain = 0
KST2 111058Z 25016KT 12/03 A2962 RMK A01 T01190026  RH  053%=      5-min Rain = 0
KST2 111059Z 26015G20KT 12/03 A2962 RMK A01 T01180026  RH  053%=      5-min Rain = 0
KST2 111100Z 26016KT 12/03 A2962 RMK A01 T01170026  RH  053%=      5-min Rain = 0
KST2 111101Z 26015KT 12/03 A2962 RMK A01 T01170026  RH  054%=      5-min Rain = 0
KST2 111102Z 26015KT 12/03 A2962 RMK A01 T01160026  RH  054%=      5-min Rain = 0
KST2 111103Z 26015KT 12/03 A2962 RMK A01 T01160026  RH  054%=      5-min Rain = 0
KST2 111104Z 26016KT 12/03 A2962 RMK A01 T01150026  RH  054%=      5-min Rain = 0
KST2 111105Z 26016KT 12/03 A2962 RMK A01 T01150025  RH  054%=      5-min Rain = 0
KST2 111106Z 26015KT 12/03 A2962 RMK A01 T01150025  RH  054%=      5-min Rain = 0
KST2 111107Z 26016KT 12/03 A2962 RMK A01 T01150025  RH  054%=      5-min Rain = 0
KST2 111108Z 26017KT 11/03 A2962 RMK A01 T01140025  RH  054%=      5-min Rain = 0
KST2 111109Z 26017KT 11/03 A2962 RMK A01 T01140025  RH  054%=      5-min Rain = 0
KST2 111110Z 26016KT 12/03 A2962 RMK A01 T01150025  RH  054%=      5-min Rain = 0
KST2 111111Z 26015KT 12/03 A2962 RMK A01 T01150025  RH  054%=      5-min Rain = 0
KST2 111112Z 26016KT 11/03 A2962 RMK A01 T01140025  RH  055%=      5-min Rain = 0
KST2 111113Z 26015KT 11/03 A2962 RMK A01 T01130026  RH  055%=      5-min Rain = 0
KST2 111114Z 27015KT 11/03 A2962 RMK A01 T01130025  RH  055%=      5-min Rain = 0
KST2 111115Z 26017KT 11/03 A2962 RMK A01 T01130026  RH  055%=      5-min Rain = 0
KST2 111116Z 27015KT 11/03 A2962 RMK A01 T01130026  RH  055%=      5-min Rain = 0
KST2 111117Z 27016KT 11/03 A2962 RMK A01 T01120025  RH  055%=      5-min Rain = 0
KST2 111118Z 27015KT 11/03 A2962 RMK A01 T01110025  RH  055%=      5-min Rain = 0
KST2 111119Z 27014KT 11/03 A2962 RMK A01 T01110025  RH  055%=      5-min Rain = 0
KST2 111120Z 27014KT 11/03 A2962 RMK A01 T01110025  RH  056%=      5-min Rain = 0
KST2 111121Z 26015KT 11/03 A2962 RMK A01 T01110026  RH  056%=      5-min Rain = 0
KST2 111122Z 27014KT 11/03 A2962 RMK A01 T01100025  RH  056%=      5-min Rain = 0
KST2 111123Z 27015KT 11/03 A2962 RMK A01 T01100025  RH  056%=      5-min Rain = 0
KST2 111124Z 26014KT 11/03 A2962 RMK A01 T01100025  RH  056%=      5-min Rain = 0
KST2 111125Z 26014KT 11/03 A2963 RMK A01 T01100025  RH  056%=      5-min Rain = 0
KST2 111126Z 27013KT 11/03 A2963 RMK A01 T01100026  RH  056%=      5-min Rain = 0
KST2 111127Z 26015KT 11/03 A2963 RMK A01 T01090025  RH  056%=      5-min Rain = 0
KST2 111128Z 26013KT 11/03 A2963 RMK A01 T01090025  RH  056%=      5-min Rain = 0
KST2 111129Z 26014KT 11/03 A2963 RMK A01 T01090025  RH  056%=      5-min Rain = 0
KST2 111130Z 26013KT 11/03 A2963 RMK A01 T01080025  RH  056%=      5-min Rain = 0
KST2 111131Z 26013KT 11/03 A2963 RMK A01 T01080025  RH  057%=      5-min Rain = 0
KST2 111132Z 27013KT 11/03 A2963 RMK A01 T01080025  RH  057%=      5-min Rain = 0
KST2 111133Z 27013KT 11/03 A2963 RMK A01 T01070025  RH  057%=      5-min Rain = 0
KST2 111134Z 27014KT 11/03 A2964 RMK A01 T01070025  RH  057%=      5-min Rain = 0
KST2 111135Z 27013KT 11/03 A2964 RMK A01 T01070025  RH  057%=      5-min Rain = 0
KST2 111136Z 27013KT 11/03 A2964 RMK A01 T01070026  RH  057%=      5-min Rain = 0
KST2 111137Z 27014KT 11/03 A2964 RMK A01 T01070026  RH  057%=      5-min Rain = 0
KST2 111138Z 27012KT 11/03 A2964 RMK A01 T01070026  RH  057%=      5-min Rain = 0
KST2 111139Z 27012KT 11/03 A2964 RMK A01 T01070025  RH  057%=      5-min Rain = 0
KST2 111140Z 27011KT 11/03 A2964 RMK A01 T01060025  RH  057%=      5-min Rain = 0
KST2 111141Z 27012KT 11/03 A2964 RMK A01 T01060026  RH  058%=      5-min Rain = 0
KST2 111142Z 27012KT 11/03 A2964 RMK A01 T01050025  RH  058%=      5-min Rain = 0
KST2 111143Z 27011KT 10/03 A2964 RMK A01 T01040025  RH  058%=      5-min Rain = 0
KST2 111144Z 27011KT 10/03 A2964 RMK A01 T01040025  RH  058%=      5-min Rain = 0
KST2 111145Z 27013KT 10/03 A2965 RMK A01 T01040026  RH  058%=      5-min Rain = 0
KST2 111146Z 27012KT 10/03 A2965 RMK A01 T01040026  RH  058%=      5-min Rain = 0
KST2 111147Z 27011KT 10/03 A2965 RMK A01 T01030025  RH  058%=      5-min Rain = 0
KST2 111148Z 27012KT 10/03 A2965 RMK A01 T01030025  RH  058%=      5-min Rain = 0
KST2 111149Z 27012KT 10/03 A2965 RMK A01 T01030025  RH  058%=      5-min Rain = 0
KST2 111150Z 27012KT 10/03 A2965 RMK A01 T01040025  RH  058%=      5-min Rain = 0
KST2 111151Z 27011KT 10/03 A2965 RMK A01 T01040025  RH  058%=      5-min Rain = 0
KST2 111152Z 28011KT 10/03 A2966 RMK A01 T01040025  RH  058%=      5-min Rain = 0
KST2 111153Z 28012KT 10/03 A2966 RMK A01 T01030025  RH  058%=      5-min Rain = 0
KST2 111154Z 28011KT 10/03 A2966 RMK A01 T01030025  RH  058%=      5-min Rain = 0
KST2 111155Z 28010KT 10/03 A2966 RMK A01 T01030025  RH  058%=      5-min Rain = 0
KST2 111156Z 28009KT 10/03 A2966 RMK A01 T01020025  RH  059%=      5-min Rain = 0
KST2 111157Z 28010KT 10/03 A2966 RMK A01 T01010025  RH  059%=      5-min Rain = 0
KST2 111158Z 27009KT 10/03 A2966 RMK A01 T01000025  RH  059%=      5-min Rain = 0
KST2 111159Z 28010KT 10/03 A2966 RMK A01 T00990025  RH  060%=      5-min Rain = 0
KST2 111200Z 28011KT 10/03 A2966 RMK A01 T00980025  RH  060%=      5-min Rain = 0
KST2 111201Z 28011KT 10/03 A2966 RMK A01 T00990026  RH  060%=      5-min Rain = 0
KST2 111202Z 27011KT 10/03 A2967 RMK A01 T01000026  RH  060%=      5-min Rain = 0
KST2 111203Z 27011KT 10/03 A2967 RMK A01 T00990026  RH  060%=      5-min Rain = 0
KST2 111204Z 27011KT 10/03 A2967 RMK A01 T00980026  RH  061%=      5-min Rain = 0
KST2 111205Z 28010KT 10/03 A2967 RMK A01 T00980026  RH  061%=      5-min Rain = 0
KST2 111206Z 28011KT 10/03 A2967 RMK A01 T00980026  RH  061%=      5-min Rain = 0
KST2 111207Z 28010KT 10/03 A2967 RMK A01 T00970026  RH  061%=      5-min Rain = 0
KST2 111208Z 28010KT 10/03 A2967 RMK A01 T00970026  RH  061%=      5-min Rain = 0
KST2 111209Z 28010KT 10/03 A2967 RMK A01 T00960026  RH  061%=      5-min Rain = 0
KST2 111210Z 28009KT 10/03 A2967 RMK A01 T00960026  RH  062%=      5-min Rain = 0
KST2 111211Z 29010KT 10/03 A2967 RMK A01 T00950026  RH  062%=      5-min Rain = 0
KST2 111212Z 29010KT 09/03 A2968 RMK A01 T00940026  RH  062%=      5-min Rain = 0
KST2 111213Z 30010KT 09/03 A2968 RMK A01 T00940025  RH  062%=      5-min Rain = 0
KST2 111214Z 30010KT 09/03 A2968 RMK A01 T00930025  RH  063%=      5-min Rain = 0
KST2 111215Z 31010KT 09/02 A2969 RMK A01 T00910024  RH  063%=      5-min Rain = 0
KST2 111216Z 31010KT 09/02 A2969 RMK A01 T00900024  RH  063%=      5-min Rain = 0
KST2 111217Z 32010KT 09/02 A2969 RMK A01 T00890024  RH  064%=      5-min Rain = 0
KST2 111218Z 33013G21KT 09/03 A2969 RMK A01 T00900025  RH  064%=      5-min Rain = 0
KST2 111219Z 32019KT 10/03 A2969 RMK A01 T00960026  RH  062%=      5-min Rain = 0
KST2 111220Z 32018KT 10/03 A2969 RMK A01 T01020026  RH  059%=      5-min Rain = 0
KST2 111221Z 32017KT 10/03 A2969 RMK A01 T01040025  RH  058%=      5-min Rain = 0
KST2 111222Z 32017KT 11/03 A297 RMK A01 T01050025  RH  058%=      5-min Rain = 0
KST2 111223Z 32015G20KT 11/03 A297 RMK A01 T01050025  RH  057%=      5-min Rain = 0
KST2 111224Z 32014KT 11/03 A297 RMK A01 T01060025  RH  057%=      5-min Rain = 0
KST2 111225Z 32016KT 11/03 A297 RMK A01 T01060025  RH  057%=      5-min Rain = 0
KST2 111226Z 33018KT 11/02 A297 RMK A01 T01060024  RH  057%=      5-min Rain = 0
KST2 111227Z 33019KT 11/02 A2971 RMK A01 T01060024  RH  057%=      5-min Rain = 0
KST2 111228Z 33021KT 11/02 A2971 RMK A01 T01060023  RH  056%=      5-min Rain = 0
KST2 111229Z 33019G25KT 11/02 A2971 RMK A01 T01060022  RH  056%=      5-min Rain = 0
KST2 111230Z 33021KT 11/02 A2971 RMK A01 T01050022  RH  056%=      5-min Rain = 0
KST2 111231Z 33018KT 11/02 A2971 RMK A01 T01050022  RH  056%=      5-min Rain = 0
KST2 111232Z 33019G24KT 10/02 A2971 RMK A01 T01040021  RH  057%=      5-min Rain = 0
KST2 111233Z 33020KT 10/02 A2972 RMK A01 T01030021  RH  057%=      5-min Rain = 0
KST2 111234Z 33021KT 10/02 A2972 RMK A01 T01020021  RH  057%=      5-min Rain = 0
KST2 111235Z 33021KT 10/02 A2972 RMK A01 T01020021  RH  057%=      5-min Rain = 0
KST2 111236Z 33017KT 10/02 A2972 RMK A01 T01020021  RH  057%=      5-min Rain = 0
KST2 111237Z 33017KT 10/02 A2972 RMK A01 T01010021  RH  057%=      5-min Rain = 0
KST2 111238Z 34015G22KT 10/02 A2973 RMK A01 T01000021  RH  058%=      5-min Rain = 0
KST2 111239Z 35015KT 10/02 A2973 RMK A01 T00990021  RH  059%=      5-min Rain = 0
KST2 111240Z 34014KT 10/02 A2973 RMK A01 T00980021  RH  059%=      5-min Rain = 0
KST2 111241Z 34017KT 10/02 A2973 RMK A01 T00970021  RH  059%=      5-min Rain = 0
KST2 111242Z 34017KT 10/02 A2973 RMK A01 T00970021  RH  059%=      5-min Rain = 0
KST2 111243Z 34014KT 10/02 A2974 RMK A01 T00970021  RH  059%=      5-min Rain = 0
KST2 111244Z 34016KT 10/02 A2974 RMK A01 T00960021  RH  059%=      5-min Rain = 0
KST2 111245Z 34016KT 10/02 A2974 RMK A01 T00960021  RH  060%=      5-min Rain = 0
KST2 111246Z 33014KT 10/02 A2974 RMK A01 T00960021  RH  060%=      5-min Rain = 0
KST2 111247Z 34015KT 09/02 A2974 RMK A01 T00940021  RH  060%=      5-min Rain = 0
KST2 111248Z 33018G23KT 09/02 A2974 RMK A01 T00940021  RH  060%=      5-min Rain = 0
KST2 111249Z 34020G26KT 09/02 A2975 RMK A01 T00940021  RH  060%=      5-min Rain = 0
KST2 111250Z 33028G33KT 09/02 A2975 RMK A01 T00940018  RH  059%=      5-min Rain = 0
KST2 111251Z 33025G32KT 09/02 A2975 RMK A01 T00920015  RH  059%=      5-min Rain = 0
KST2 111252Z 33030G36KT 09/01 A2975 RMK A01 T00890012  RH  058%=      5-min Rain = 0
KST2 111253Z 34031G36KT 09/01 A2975 RMK A01 T00880011  RH  058%=      5-min Rain = 0
KST2 111254Z 34028G33KT 09/01 A2975 RMK A01 T00870010  RH  058%=      5-min Rain = 0
KST2 111255Z 34028KT 09/01 A2975 RMK A01 T00860009  RH  059%=      5-min Rain = 0
KST2 111256Z 34029KT 09/01 A2975 RMK A01 T00850009  RH  059%=      5-min Rain = 0
KST2 111257Z 34028KT 08/01 A2976 RMK A01 T00840008  RH  059%=      5-min Rain = 0
KST2 111258Z 34027G32KT 08/01 A2976 RMK A01 T00830007  RH  059%=      5-min Rain = 0
KST2 111259Z 34027KT 08/01 A2976 RMK A01 T00820007  RH  059%=      5-min Rain = 0
KST2 111300Z 34027KT 08/01 A2976 RMK A01 T00810007  RH  059%=      5-min Rain = 0
KST2 111301Z 34025KT 08/01 A2976 RMK A01 T00810007  RH  059%=      5-min Rain = 0
KST2 111302Z 34028KT 08/01 A2976 RMK A01 T00810007  RH  060%=      5-min Rain = 0
KST2 111303Z 33024KT 08/01 A2976 RMK A01 T00800007  RH  060%=      5-min Rain = 0
KST2 111304Z 34020G25KT 08/01 A2977 RMK A01 T00790006  RH  060%=      5-min Rain = 0
KST2 111305Z 34024KT 08/01 A2977 RMK A01 T00780006  RH  060%=      5-min Rain = 0
KST2 111306Z 34020KT 08/01 A2977 RMK A01 T00780006  RH  060%=      5-min Rain = 0
KST2 111307Z 34020G26KT 08/01 A2977 RMK A01 T00770006  RH  061%=      5-min Rain = 0
KST2 111308Z 34023KT 08/01 A2977 RMK A01 T00770007  RH  061%=      5-min Rain = 0
KST2 111309Z 34023KT 08/01 A2977 RMK A01 T00770006  RH  061%=      5-min Rain = 0
KST2 111310Z 34024KT 08/01 A2977 RMK A01 T00770006  RH  061%=      5-min Rain = 0
KST2 111311Z 34023KT 08/01 A2977 RMK A01 T00770006  RH  061%=      5-min Rain = 0
KST2 111312Z 34024KT 08/01 A2978 RMK A01 T00760006  RH  061%=      5-min Rain = 0
KST2 111313Z 33024KT 08/01 A2978 RMK A01 T00760006  RH  061%=      5-min Rain = 0
KST2 111314Z 33021KT 08/01 A2978 RMK A01 T00760006  RH  061%=      5-min Rain = 0
KST2 111315Z 33019KT 08/01 A2978 RMK A01 T00750006  RH  061%=      5-min Rain = 0
KST2 111316Z 34021KT 08/01 A2978 RMK A01 T00750006  RH  062%=      5-min Rain = 0
KST2 111317Z 33019KT 08/01 A2978 RMK A01 T00750006  RH  062%=      5-min Rain = 0
KST2 111318Z 33020KT 07/01 A2978 RMK A01 T00740006  RH  062%=      5-min Rain = 0
KST2 111319Z 33017KT 07/01 A2979 RMK A01 T00730006  RH  062%=      5-min Rain = 0
KST2 111320Z 33021KT 07/01 A2979 RMK A01 T00730006  RH  062%=      5-min Rain = 0
KST2 111321Z 33023G29KT 07/01 A2979 RMK A01 T00730005  RH  062%=      5-min Rain = 0
KST2 111322Z 33025KT 07/01 A2979 RMK A01 T00730005  RH  062%=      5-min Rain = 0
KST2 111323Z 33024G30KT 07/00 A2979 RMK A01 T00730004  RH  062%=      5-min Rain = 0
KST2 111324Z 33024KT 07/00 A2979 RMK A01 T00730004  RH  062%=      5-min Rain = 0
KST2 111325Z 34021G26KT 07/00 A2979 RMK A01 T00730004  RH  062%=      5-min Rain = 0
KST2 111326Z 34024G30KT 07/00 A2979 RMK A01 T00720004  RH  062%=      5-min Rain = 0
KST2 111327Z 34023G29KT 07/00 A2979 RMK A01 T00710003  RH  062%=      5-min Rain = 0
KST2 111328Z 34026G31KT 07/00 A2979 RMK A01 T00710001  RH  061%=      5-min Rain = 0
KST2 111329Z 34023KT 07/00 A2979 RMK A01 T00700001  RH  061%=      5-min Rain = 0
KST2 111330Z 34021KT 07/00 A2979 RMK A01 T00700001  RH  062%=      5-min Rain = 0
KST2 111331Z 34025KT 07/00 A2979 RMK A01 T00690000  RH  062%=      5-min Rain = 0
KST2 111332Z 34024KT 07/00 A298 RMK A01 T00690000  RH  062%=      5-min Rain = 0
KST2 111333Z 34025KT 07/M00 A2979 RMK A01 T00681001  RH  062%=      5-min Rain = 0
KST2 111334Z 34026KT 07/M00 A298 RMK A01 T00681001  RH  061%=      5-min Rain = 0
KST2 111335Z 34026KT 07/M00 A298 RMK A01 T00681001  RH  061%=      5-min Rain = 0
KST2 111336Z 34025KT 07/M00 A298 RMK A01 T00681002  RH  061%=      5-min Rain = 0
KST2 111337Z 34022KT 07/M00 A298 RMK A01 T00671002  RH  061%=      5-min Rain = 0
KST2 111338Z 34020KT 07/M00 A298 RMK A01 T00661002  RH  062%=      5-min Rain = 0
KST2 111339Z 34021KT 07/M00 A2981 RMK A01 T00661002  RH  062%=      5-min Rain = 0
KST2 111340Z 34021G26KT 07/M00 A2981 RMK A01 T00651002  RH  062%=      5-min Rain = 0
KST2 111341Z 34022KT 07/M00 A2981 RMK A01 T00651003  RH  062%=      5-min Rain = 0
KST2 111342Z 34022KT 07/M00 A2981 RMK A01 T00651004  RH  062%=      5-min Rain = 0
KST2 111343Z 34020KT 06/M00 A2981 RMK A01 T00641004  RH  062%=      5-min Rain = 0
KST2 111344Z 34019KT 06/M00 A2981 RMK A01 T00641004  RH  062%=      5-min Rain = 0
KST2 111345Z 34018KT 06/M00 A2981 RMK A01 T00631004  RH  062%=      5-min Rain = 0
KST2 111346Z 35022G28KT 06/M00 A2981 RMK A01 T00631004  RH  062%=      5-min Rain = 0
KST2 111347Z 34021KT 06/M01 A2982 RMK A01 T00631005  RH  062%=      5-min Rain = 0
KST2 111348Z 34021G26KT 06/M01 A2982 RMK A01 T00631005  RH  062%=      5-min Rain = 0
KST2 111349Z 34020KT 06/M01 A2982 RMK A01 T00631005  RH  062%=      5-min Rain = 0
KST2 111350Z 34018KT 06/M01 A2982 RMK A01 T00631005  RH  062%=      5-min Rain = 0
KST2 111351Z 34021KT 06/M01 A2982 RMK A01 T00621005  RH  062%=      5-min Rain = 0
KST2 111352Z 34023KT 06/M01 A2982 RMK A01 T00621005  RH  062%=      5-min Rain = 0
KST2 111353Z 34020KT 06/M01 A2982 RMK A01 T00621006  RH  062%=      5-min Rain = 0
KST2 111354Z 34021KT 06/M01 A2982 RMK A01 T00621006  RH  062%=      5-min Rain = 0
KST2 111355Z 34021KT 06/M01 A2982 RMK A01 T00621006  RH  062%=      5-min Rain = 0
KST2 111356Z 34016KT 06/M01 A2982 RMK A01 T00621006  RH  062%=      5-min Rain = 0
KST2 111357Z 34020G26KT 06/M01 A2982 RMK A01 T00621006  RH  062%=      5-min Rain = 0
KST2 111358Z 34021G27KT 06/M01 A2982 RMK A01 T00611007  RH  062%=      5-min Rain = 0
KST2 111359Z 34023KT 06/M01 A2983 RMK A01 T00611007  RH  061%=      5-min Rain = 0
KST2 111400Z 34018G23KT 06/M01 A2983 RMK A01 T00621007  RH  061%=      5-min Rain = 0
KST2 111401Z 34018KT 06/M01 A2983 RMK A01 T00621007  RH  061%=      5-min Rain = 0
KST2 111402Z 34018KT 06/M01 A2983 RMK A01 T00611007  RH  061%=      5-min Rain = 0
KST2 111403Z 34019KT 06/M01 A2983 RMK A01 T00611007  RH  062%=      5-min Rain = 0
KST2 111404Z 34018G24KT 06/M01 A2983 RMK A01 T00611007  RH  061%=      5-min Rain = 0
KST2 111405Z 34019KT 06/M01 A2983 RMK A01 T00611008  RH  061%=      5-min Rain = 0
KST2 111406Z 34018KT 06/M01 A2983 RMK A01 T00611008  RH  061%=      5-min Rain = 0
KST2 111407Z 34018KT 06/M01 A2984 RMK A01 T00611008  RH  062%=      5-min Rain = 0
KST2 111408Z 34019G24KT 06/M01 A2983 RMK A01 T00611008  RH  061%=      5-min Rain = 0
KST2 111409Z 34020G26KT 06/M01 A2984 RMK A01 T00611008  RH  061%=      5-min Rain = 0
KST2 111410Z 34020KT 06/M01 A2984 RMK A01 T00611009  RH  061%=      5-min Rain = 0
KST2 111411Z 34020KT 06/M01 A2984 RMK A01 T00611008  RH  061%=      5-min Rain = 0
KST2 111412Z 34021KT 06/M01 A2984 RMK A01 T00611009  RH  061%=      5-min Rain = 0
KST2 111413Z 34017KT 06/M01 A2984 RMK A01 T00611009  RH  061%=      5-min Rain = 0
KST2 111414Z 34016KT 06/M01 A2984 RMK A01 T00611009  RH  061%=      5-min Rain = 0
KST2 111415Z 34020KT 06/M01 A2985 RMK A01 T00601009  RH  061%=      5-min Rain = 0
KST2 111416Z 34019G25KT 06/M01 A2985 RMK A01 T00601010  RH  061%=      5-min Rain = 0
KST2 111417Z 34019KT 06/M01 A2985 RMK A01 T00601010  RH  061%=      5-min Rain = 0
KST2 111418Z 34019KT 06/M01 A2985 RMK A01 T00601010  RH  061%=      5-min Rain = 0
KST2 111419Z 34015G20KT 06/M01 A2986 RMK A01 T00601010  RH  061%=      5-min Rain = 0
KST2 111420Z 34016KT 06/M01 A2986 RMK A01 T00601010  RH  061%=      5-min Rain = 0
KST2 111421Z 34019KT 06/M01 A2986 RMK A01 T00601010  RH  061%=      5-min Rain = 0
KST2 111422Z 33019KT 06/M01 A2986 RMK A01 T00591010  RH  061%=      5-min Rain = 0
KST2 111423Z 33018KT 06/M01 A2986 RMK A01 T00601010  RH  061%=      5-min Rain = 0
KST2 111424Z 33020KT 06/M01 A2986 RMK A01 T00591011  RH  061%=      5-min Rain = 0
KST2 111425Z 33021G26KT 06/M01 A2986 RMK A01 T00591012  RH  060%=      5-min Rain = 0
KST2 111426Z 32023G29KT 06/M01 A2986 RMK A01 T00581013  RH  060%=      5-min Rain = 0
KST2 111427Z 33025KT 06/M01 A2986 RMK A01 T00571014  RH  060%=      5-min Rain = 0
KST2 111428Z 33029KT 06/M02 A2987 RMK A01 T00551016  RH  060%=      5-min Rain = 0
KST2 111429Z 33026G31KT 05/M02 A2987 RMK A01 T00541016  RH  061%=      5-min Rain = 0
KST2 111430Z 33029G35KT 05/M02 A2987 RMK A01 T00531017  RH  061%=      5-min Rain = 0
KST2 111431Z 34029KT 05/M02 A2987 RMK A01 T00521018  RH  061%=      5-min Rain = 0
KST2 111432Z 34028KT 05/M02 A2987 RMK A01 T00511018  RH  061%=      5-min Rain = 0
KST2 111433Z 34029KT 05/M02 A2988 RMK A01 T00511018  RH  061%=      5-min Rain = 0
KST2 111434Z 34027KT 05/M02 A2988 RMK A01 T00511018  RH  061%=      5-min Rain = 0
KST2 111435Z 34026G34KT 05/M02 A2988 RMK A01 T00511018  RH  061%=      5-min Rain = 0
KST2 111436Z 35030G36KT 05/M02 A2988 RMK A01 T00511018  RH  061%=      5-min Rain = 0
KST2 111437Z 34026KT 05/M02 A2988 RMK A01 T00511019  RH  061%=      5-min Rain = 0
KST2 111438Z 34021KT 05/M02 A2989 RMK A01 T00511018  RH  061%=      5-min Rain = 0
KST2 111439Z 35025KT 05/M02 A2989 RMK A01 T00511018  RH  061%=      5-min Rain = 0
KST2 111440Z 34023KT 05/M02 A2989 RMK A01 T00521018  RH  061%=      5-min Rain = 0
KST2 111441Z 35024KT 05/M02 A2989 RMK A01 T00521018  RH  061%=      5-min Rain = 0
KST2 111442Z 34024KT 05/M02 A2989 RMK A01 T00521018  RH  060%=      5-min Rain = 0
KST2 111443Z 34025G30KT 05/M02 A2989 RMK A01 T00521018  RH  060%=      5-min Rain = 0
KST2 111444Z 34027KT 05/M02 A2989 RMK A01 T00521019  RH  060%=      5-min Rain = 0
KST2 111445Z 35025KT 05/M02 A299 RMK A01 T00521019  RH  060%=      5-min Rain = 0
KST2 111446Z 35023KT 05/M02 A299 RMK A01 T00521019  RH  060%=      5-min Rain = 0
KST2 111447Z 35021KT 05/M02 A299 RMK A01 T00521018  RH  061%=      5-min Rain = 0
KST2 111448Z 35018KT 05/M02 A299 RMK A01 T00521018  RH  061%=      5-min Rain = 0
KST2 111449Z 34019G24KT 05/M02 A299 RMK A01 T00521018  RH  061%=      5-min Rain = 0
KST2 111450Z 34019KT 05/M02 A299 RMK A01 T00521018  RH  061%=      5-min Rain = 0
KST2 111451Z 34016KT 05/M02 A299 RMK A01 T00521018  RH  061%=      5-min Rain = 0
KST2 111452Z 34016G23KT 05/M02 A299 RMK A01 T00521018  RH  061%=      5-min Rain = 0
KST2 111453Z 35020KT 05/M02 A299 RMK A01 T00521017  RH  061%=      5-min Rain = 0
KST2 111454Z 34021G27KT 05/M02 A299 RMK A01 T00521018  RH  061%=      5-min Rain = 0
KST2 111455Z 34023G28KT 05/M02 A299 RMK A01 T00521018  RH  061%=      5-min Rain = 0
KST2 111456Z 34020KT 05/M02 A2991 RMK A01 T00521018  RH  061%=      5-min Rain = 0
KST2 111457Z 34020KT 05/M02 A2991 RMK A01 T00511018  RH  061%=      5-min Rain = 0
KST2 111458Z 34021KT 05/M02 A2991 RMK A01 T00511018  RH  061%=      5-min Rain = 0
KST2 111459Z 34020KT 05/M02 A2991 RMK A01 T00511018  RH  061%=      5-min Rain = 0
KST2 111500Z 34021KT 05/M02 A2991 RMK A01 T00521018  RH  061%=      5-min Rain = 0
KST2 111501Z 33023KT 05/M02 A2991 RMK A01 T00521018  RH  061%=      5-min Rain = 0
KST2 111502Z 33021KT 05/M02 A2991 RMK A01 T00521019  RH  060%=      5-min Rain = 0
KST2 111503Z 33024KT 05/M02 A2991 RMK A01 T00511020  RH  060%=      5-min Rain = 0
KST2 111504Z 33021G26KT 05/M02 A2991 RMK A01 T00511022  RH  059%=      5-min Rain = 0
KST2 111505Z 33024G29KT 05/M02 A2991 RMK A01 T00501023  RH  059%=      5-min Rain = 0
KST2 111506Z 33027KT 05/M02 A2991 RMK A01 T00491024  RH  059%=      5-min Rain = 0
KST2 111507Z 33030G35KT 05/M03 A2992 RMK A01 T00481029  RH  058%=      5-min Rain = 0
KST2 111508Z 34029KT 05/M03 A2992 RMK A01 T00451032  RH  057%=      5-min Rain = 0
KST2 111509Z 34030KT 04/M03 A2992 RMK A01 T00441033  RH  057%=      5-min Rain = 0
KST2 111510Z 33026G31KT 04/M03 A2992 RMK A01 T00431034  RH  058%=      5-min Rain = 0
KST2 111511Z 33027G32KT 04/M04 A2992 RMK A01 T00421035  RH  058%=      5-min Rain = 0
KST2 111512Z 33027G32KT 04/M04 A2992 RMK A01 T00411035  RH  058%=      5-min Rain = 0
KST2 111513Z 33027KT 04/M04 A2993 RMK A01 T00401036  RH  058%=      5-min Rain = 0
KST2 111514Z 33023G29KT 04/M04 A2993 RMK A01 T00401035  RH  058%=      5-min Rain = 0
KST2 111515Z 34026G31KT 04/M04 A2993 RMK A01 T00401035  RH  058%=      5-min Rain = 0
KST2 111516Z 33025KT 04/M04 A2993 RMK A01 T00401036  RH  058%=      5-min Rain = 0
KST2 111517Z 33025G30KT 04/M04 A2993 RMK A01 T00391036  RH  058%=      5-min Rain = 0
KST2 111518Z 34024KT 04/M04 A2994 RMK A01 T00381037  RH  058%=      5-min Rain = 0
KST2 111519Z 34026KT 04/M04 A2994 RMK A01 T00381037  RH  058%=      5-min Rain = 0
KST2 111520Z 34025G30KT 04/M04 A2994 RMK A01 T00381037  RH  058%=      5-min Rain = 0
KST2 111521Z 34028KT 04/M04 A2994 RMK A01 T00371040  RH  057%=      5-min Rain = 0
KST2 111522Z 34028KT 04/M04 A2994 RMK A01 T00361041  RH  057%=      5-min Rain = 0
KST2 111523Z 33027KT 04/M04 A2994 RMK A01 T00361041  RH  057%=      5-min Rain = 0
KST2 111524Z 33025G30KT 04/M04 A2994 RMK A01 T00351041  RH  057%=      5-min Rain = 0
KST2 111525Z 34023KT 04/M04 A2995 RMK A01 T00351041  RH  058%=      5-min Rain = 0
KST2 111526Z 34026G31KT 04/M04 A2995 RMK A01 T00351041  RH  057%=      5-min Rain = 0
KST2 111527Z 34022KT 04/M04 A2995 RMK A01 T00351041  RH  057%=      5-min Rain = 0
KST2 111528Z 35026KT 04/M04 A2995 RMK A01 T00351041  RH  057%=      5-min Rain = 0
KST2 111529Z 34025KT 03/M04 A2995 RMK A01 T00341043  RH  057%=      5-min Rain = 0
KST2 111530Z 34022KT 03/M04 A2996 RMK A01 T00341042  RH  057%=      5-min Rain = 0
KST2 111531Z 33020G26KT 03/M04 A2995 RMK A01 T00341042  RH  058%=      5-min Rain = 0
KST2 111532Z 33022KT 03/M04 A2995 RMK A01 T00341042  RH  057%=      5-min Rain = 0
KST2 111533Z 33025KT 03/M04 A2996 RMK A01 T00341043  RH  057%=      5-min Rain = 0
KST2 111534Z 33022KT 03/M04 A2996 RMK A01 T00341043  RH  057%=      5-min Rain = 0
KST2 111535Z 33025G32KT 03/M04 A2996 RMK A01 T00331043  RH  057%=      5-min Rain = 0
KST2 111536Z 33023KT 03/M04 A2996 RMK A01 T00331044  RH  057%=      5-min Rain = 0
KST2 111537Z 33020KT 03/M04 A2996 RMK A01 T00321044  RH  057%=      5-min Rain = 0
KST2 111538Z 33023KT 03/M04 A2996 RMK A01 T00321044  RH  058%=      5-min Rain = 0
KST2 111539Z 33023KT 03/M04 A2996 RMK A01 T00321044  RH  057%=      5-min Rain = 0
KST2 111540Z 33024KT 03/M05 A2996 RMK A01 T00311045  RH  057%=      5-min Rain = 0
KST2 111541Z 34021KT 03/M05 A2996 RMK A01 T00311045  RH  057%=      5-min Rain = 0
KST2 111542Z 34020KT 03/M05 A2997 RMK A01 T00311045  RH  058%=      5-min Rain = 0
KST2 111543Z 34020KT 03/M05 A2997 RMK A01 T00311045  RH  058%=      5-min Rain = 0
KST2 111544Z 34021G26KT 03/M05 A2997 RMK A01 T00311045  RH  058%=      5-min Rain = 0
KST2 111545Z 34020KT 03/M05 A2997 RMK A01 T00311045  RH  058%=      5-min Rain = 0
KST2 111546Z 33021KT 03/M04 A2997 RMK A01 T00311044  RH  058%=      5-min Rain = 0
KST2 111547Z 34021KT 03/M04 A2997 RMK A01 T00301044  RH  058%=      5-min Rain = 0
KST2 111548Z 33019KT 03/M04 A2997 RMK A01 T00301044  RH  058%=      5-min Rain = 0
KST2 111549Z 34020KT 03/M04 A2997 RMK A01 T00301044  RH  058%=      5-min Rain = 0
KST2 111550Z 34020KT 03/M04 A2998 RMK A01 T00301044  RH  058%=      5-min Rain = 0
KST2 111551Z 34018KT 03/M04 A2998 RMK A01 T00301044  RH  058%=      5-min Rain = 0
KST2 111552Z 34018KT 03/M04 A2998 RMK A01 T00301044  RH  058%=      5-min Rain = 0
KST2 111553Z 34019KT 03/M04 A2998 RMK A01 T00301044  RH  058%=      5-min Rain = 0
KST2 111554Z 35019KT 03/M04 A2998 RMK A01 T00301044  RH  058%=      5-min Rain = 0
KST2 111555Z 34019KT 03/M04 A2998 RMK A01 T00301044  RH  058%=      5-min Rain = 0
KST2 111556Z 34016KT 03/M04 A2998 RMK A01 T00311043  RH  058%=      5-min Rain = 0
KST2 111557Z 34017KT 03/M04 A2998 RMK A01 T00311043  RH  058%=      5-min Rain = 0
KST2 111558Z 33019KT 03/M04 A2998 RMK A01 T00311043  RH  058%=      5-min Rain = 0
KST2 111559Z 34019KT 03/M04 A2998 RMK A01 T00311043  RH  058%=      5-min Rain = 0
KST2 111600Z 34020KT 03/M04 A2998 RMK A01 T00311043  RH  058%=      5-min Rain = 0
KST2 111601Z 34021KT 03/M04 A2998 RMK A01 T00301044  RH  058%=      5-min Rain = 0
KST2 111602Z 34021KT 03/M04 A2998 RMK A01 T00301044  RH  058%=      5-min Rain = 0
KST2 111603Z 33018KT 03/M04 A2998 RMK A01 T00301044  RH  058%=      5-min Rain = 0
KST2 111604Z 34021KT 03/M04 A2998 RMK A01 T00301044  RH  058%=      5-min Rain = 0
KST2 111605Z 35020KT 03/M04 A2998 RMK A01 T00301044  RH  058%=      5-min Rain = 0
KST2 111606Z 35019KT 03/M04 A2998 RMK A01 T00301044  RH  058%=      5-min Rain = 0
KST2 111607Z 35020KT 03/M04 A2999 RMK A01 T00301043  RH  058%=      5-min Rain = 0
KST2 111608Z 35018KT 03/M04 A2999 RMK A01 T00301043  RH  058%=      5-min Rain = 0
KST2 111609Z 36017KT 03/M04 A2999 RMK A01 T00311043  RH  058%=      5-min Rain = 0
KST2 111610Z 35020G26KT 03/M04 A2999 RMK A01 T00311043  RH  058%=      5-min Rain = 0
KST2 111611Z 35022KT 03/M04 A2999 RMK A01 T00311044  RH  058%=      5-min Rain = 0
KST2 111612Z 35020KT 03/M04 A2999 RMK A01 T00301044  RH  058%=      5-min Rain = 0
KST2 111613Z 35020KT 03/M04 A2999 RMK A01 T00301043  RH  059%=      5-min Rain = 0
KST2 111614Z 35022KT 03/M04 A2999 RMK A01 T00311043  RH  059%=      5-min Rain = 0
KST2 111615Z 35021KT 03/M04 A30 RMK A01 T00311043  RH  058%=      5-min Rain = 0
KST2 111616Z 35020KT 03/M04 A30 RMK A01 T00311043  RH  059%=      5-min Rain = 0
KST2 111617Z 35021KT 03/M04 A30 RMK A01 T00311043  RH  059%=      5-min Rain = 0
KST2 111618Z 35020KT 03/M04 A30 RMK A01 T00301043  RH  059%=      5-min Rain = 0
KST2 111619Z 35021KT 03/M04 A30 RMK A01 T00301042  RH  059%=      5-min Rain = 0
KST2 111620Z 34017KT 03/M04 A30 RMK A01 T00301042  RH  059%=      5-min Rain = 0
KST2 111621Z 35016KT 03/M04 A30 RMK A01 T00311041  RH  059%=      5-min Rain = 0
KST2 111622Z 34017KT 03/M04 A3001 RMK A01 T00311041  RH  059%=      5-min Rain = 0
KST2 111623Z 34018G25KT 03/M04 A3001 RMK A01 T00311041  RH  059%=      5-min Rain = 0
KST2 111624Z 34022KT 03/M04 A3001 RMK A01 T00311041  RH  059%=      5-min Rain = 0
KST2 111625Z 34025G32KT 03/M04 A3001 RMK A01 T00311042  RH  059%=      5-min Rain = 0
KST2 111626Z 33022KT 03/M04 A3001 RMK A01 T00291043  RH  059%=      5-min Rain = 0
KST2 111627Z 34022KT 03/M04 A3001 RMK A01 T00281043  RH  059%=      5-min Rain = 0
KST2 111628Z 34026G34KT 03/M05 A3001 RMK A01 T00271045  RH  059%=      5-min Rain = 0
KST2 111629Z 34028KT 03/M05 A3001 RMK A01 T00251047  RH  059%=      5-min Rain = 0
KST2 111630Z 33030KT 02/M05 A3001 RMK A01 T00241048  RH  059%=      5-min Rain = 0
KST2 111631Z 33025G30KT 02/M05 A3001 RMK A01 T00231048  RH  059%=      5-min Rain = 0
KST2 111632Z 33024G29KT 02/M05 A3001 RMK A01 T00221048  RH  060%=      5-min Rain = 0
KST2 111633Z 33024KT 02/M05 A3001 RMK A01 T00221048  RH  060%=      5-min Rain = 0
KST2 111634Z 33027KT 02/M05 A3002 RMK A01 T00221047  RH  060%=      5-min Rain = 0
KST2 111635Z 33027KT 02/M05 A3002 RMK A01 T00221048  RH  060%=      5-min Rain = 0
KST2 111636Z 34023KT 02/M05 A3002 RMK A01 T00221048  RH  060%=      5-min Rain = 0
KST2 111637Z 34023KT 02/M05 A3002 RMK A01 T00221047  RH  060%=      5-min Rain = 0
KST2 111638Z 34024G29KT 02/M05 A3002 RMK A01 T00221047  RH  060%=      5-min Rain = 0
KST2 111639Z 34024G29KT 02/M05 A3002 RMK A01 T00221047  RH  060%=      5-min Rain = 0
KST2 111640Z 34025KT 02/M05 A3002 RMK A01 T00221047  RH  060%=      5-min Rain = 0
KST2 111641Z 34028KT 02/M05 A3002 RMK A01 T00221048  RH  060%=      5-min Rain = 0
KST2 111642Z 34026KT 02/M05 A3003 RMK A01 T00221048  RH  060%=      5-min Rain = 0
KST2 111643Z 34026G32KT 02/M05 A3003 RMK A01 T00221048  RH  060%=      5-min Rain = 0
KST2 111644Z 34024G30KT 02/M05 A3003 RMK A01 T00221048  RH  060%=      5-min Rain = 0
KST2 111645Z 34026KT 02/M05 A3003 RMK A01 T00221048  RH  060%=      5-min Rain = 0
KST2 111646Z 34024G29KT 02/M05 A3003 RMK A01 T00231047  RH  060%=      5-min Rain = 0
KST2 111647Z 34023KT 02/M05 A3003 RMK A01 T00231048  RH  060%=      5-min Rain = 0
KST2 111648Z 34026KT 02/M05 A3003 RMK A01 T00231048  RH  059%=      5-min Rain = 0
KST2 111649Z 35024KT 02/M05 A3003 RMK A01 T00231048  RH  059%=      5-min Rain = 0
KST2 111650Z 34019G24KT 02/M05 A3003 RMK A01 T00231048  RH  059%=      5-min Rain = 0
KST2 111651Z 34018KT 02/M05 A3003 RMK A01 T00241047  RH  059%=      5-min Rain = 0
KST2 111652Z 34019KT 02/M05 A3004 RMK A01 T00241047  RH  059%=      5-min Rain = 0
KST2 111653Z 34019KT 03/M05 A3004 RMK A01 T00251047  RH  059%=      5-min Rain = 0
KST2 111654Z 34022KT 03/M05 A3004 RMK A01 T00251047  RH  059%=      5-min Rain = 0
KST2 111655Z 34022KT 02/M05 A3004 RMK A01 T00241048  RH  059%=      5-min Rain = 0
KST2 111656Z 34021G26KT 02/M05 A3004 RMK A01 T00241048  RH  059%=      5-min Rain = 0
KST2 111657Z 34022KT 02/M05 A3004 RMK A01 T00241048  RH  059%=      5-min Rain = 0
KST2 111658Z 34021G26KT 02/M05 A3004 RMK A01 T00241048  RH  059%=      5-min Rain = 0
KST2 111659Z 34021KT 02/M05 A3004 RMK A01 T00241048  RH  059%=      5-min Rain = 0
KST2 111700Z 34020KT 02/M05 A3004 RMK A01 T00241047  RH  059%=      5-min Rain = 0
KST2 111701Z 35020KT 02/M05 A3004 RMK A01 T00241047  RH  059%=      5-min Rain = 0
KST2 111702Z 35021G26KT 02/M05 A3004 RMK A01 T00241047  RH  059%=      5-min Rain = 0
KST2 111703Z 35026KT 03/M05 A3004 RMK A01 T00251048  RH  059%=      5-min Rain = 0
KST2 111704Z 35025KT 02/M05 A3004 RMK A01 T00231050  RH  058%=      5-min Rain = 0
KST2 111705Z 35023KT 02/M05 A3004 RMK A01 T00221050  RH  059%=      5-min Rain = 0
KST2 111706Z 35026G31KT 02/M05 A3004 RMK A01 T00221050  RH  059%=      5-min Rain = 0
KST2 111707Z 35023KT 02/M05 A3004 RMK A01 T00221050  RH  059%=      5-min Rain = 0
KST2 111708Z 36021KT 02/M05 A3004 RMK A01 T00221050  RH  059%=      5-min Rain = 0
KST2 111709Z 35022G27KT 02/M05 A3005 RMK A01 T00221050  RH  059%=      5-min Rain = 0
KST2 111710Z 00024G29KT 02/M05 A3005 RMK A01 T00221050  RH  059%=      5-min Rain = 0
KST2 111711Z 35021KT 02/M05 A3005 RMK A01 T00221050  RH  059%=      5-min Rain = 0
KST2 111712Z 35021KT 02/M05 A3005 RMK A01 T00231050  RH  059%=      5-min Rain = 0
KST2 111713Z 36021KT 02/M05 A3005 RMK A01 T00231050  RH  059%=      5-min Rain = 0
KST2 111714Z 36019KT 02/M05 A3005 RMK A01 T00241049  RH  059%=      5-min Rain = 0
KST2 111715Z 36021G26KT 02/M05 A3005 RMK A01 T00241049  RH  058%=      5-min Rain = 0
KST2 111716Z 35023KT 03/M05 A3005 RMK A01 T00251049  RH  058%=      5-min Rain = 0
KST2 111717Z 35022KT 03/M05 A3005 RMK A01 T00251049  RH  058%=      5-min Rain = 0
KST2 111718Z 35023KT 03/M05 A3005 RMK A01 T00251049  RH  058%=      5-min Rain = 0
KST2 111719Z 35019KT 03/M05 A3005 RMK A01 T00251048  RH  058%=      5-min Rain = 0
KST2 111720Z 35017KT 03/M05 A3005 RMK A01 T00261047  RH  059%=      5-min Rain = 0
KST2 111721Z 35022KT 03/M05 A3005 RMK A01 T00271047  RH  058%=      5-min Rain = 0
KST2 111722Z 35018G24KT 03/M05 A3005 RMK A01 T00271047  RH  058%=      5-min Rain = 0
KST2 111723Z 35021KT 03/M05 A3005 RMK A01 T00261047  RH  058%=      5-min Rain = 0
KST2 111724Z 36022KT 03/M05 A3005 RMK A01 T00271047  RH  058%=      5-min Rain = 0
KST2 111725Z 35021KT 03/M05 A3005 RMK A01 T00271047  RH  058%=      5-min Rain = 0
KST2 111726Z 35021G26KT 03/M05 A3005 RMK A01 T00271046  RH  058%=      5-min Rain = 0
KST2 111727Z 35020KT 03/M05 A3006 RMK A01 T00271046  RH  058%=      5-min Rain = 0
KST2 111728Z 35021KT 03/M05 A3006 RMK A01 T00271046  RH  058%=      5-min Rain = 0
KST2 111729Z 36020KT 03/M05 A3006 RMK A01 T00271046  RH  059%=      5-min Rain = 0
KST2 111730Z 35019KT 03/M05 A3006 RMK A01 T00271046  RH  059%=      5-min Rain = 0
KST2 111731Z 35017KT 03/M05 A3006 RMK A01 T00271046  RH  059%=      5-min Rain = 0
KST2 111732Z 35016KT 03/M04 A3006 RMK A01 T00291044  RH  059%=      5-min Rain = 0
KST2 111733Z 34016KT 03/M04 A3006 RMK A01 T00301044  RH  059%=      5-min Rain = 0
KST2 111734Z 34018KT 03/M04 A3006 RMK A01 T00301044  RH  058%=      5-min Rain = 0
KST2 111735Z 33018KT 03/M05 A3006 RMK A01 T00301045  RH  058%=      5-min Rain = 0
KST2 111736Z 33023KT 03/M05 A3006 RMK A01 T00301047  RH  057%=      5-min Rain = 0
KST2 111737Z 33024KT 03/M05 A3006 RMK A01 T00291049  RH  056%=      5-min Rain = 0
KST2 111738Z 34024KT 03/M05 A3006 RMK A01 T00281049  RH  057%=      5-min Rain = 0
KST2 111739Z 34024G30KT 03/M05 A3007 RMK A01 T00271049  RH  057%=      5-min Rain = 0
KST2 111740Z 33020KT 03/M05 A3007 RMK A01 T00271050  RH  057%=      5-min Rain = 0
KST2 111741Z 33022G27KT 03/M05 A3007 RMK A01 T00271049  RH  057%=      5-min Rain = 0
KST2 111742Z 33022KT 03/M05 A3007 RMK A01 T00271050  RH  057%=      5-min Rain = 0
KST2 111743Z 33021G26KT 03/M05 A3007 RMK A01 T00271050  RH  057%=      5-min Rain = 0
KST2 111744Z 34025KT 03/M05 A3007 RMK A01 T00271050  RH  057%=      5-min Rain = 0
KST2 111745Z 34026G32KT 03/M05 A3007 RMK A01 T00271051  RH  057%=      5-min Rain = 0
KST2 111746Z 33026KT 03/M05 A3007 RMK A01 T00271050  RH  057%=      5-min Rain = 0
KST2 111747Z 34023KT 03/M05 A3007 RMK A01 T00261051  RH  057%=      5-min Rain = 0
KST2 111748Z 34024KT 03/M05 A3007 RMK A01 T00261051  RH  057%=      5-min Rain = 0
KST2 111749Z 34027KT 03/M05 A3008 RMK A01 T00261051  RH  057%=      5-min Rain = 0
KST2 111750Z 34026G32KT 03/M05 A3007 RMK A01 T00261051  RH  057%=      5-min Rain = 0
KST2 111751Z 34023KT 03/M05 A3008 RMK A01 T00261051  RH  057%=      5-min Rain = 0
KST2 111752Z 34023KT 03/M05 A3008 RMK A01 T00271051  RH  057%=      5-min Rain = 0
KST2 111753Z 34026KT 03/M05 A3008 RMK A01 T00281051  RH  056%=      5-min Rain = 0
KST2 111754Z 34025KT 03/M05 A3008 RMK A01 T00281052  RH  056%=      5-min Rain = 0
KST2 111755Z 34024G29KT 03/M05 A3008 RMK A01 T00281052  RH  055%=      5-min Rain = 0
KST2 111756Z 35022G27KT 03/M05 A3008 RMK A01 T00281052  RH  055%=      5-min Rain = 0
KST2 111757Z 34023KT 03/M05 A3007 RMK A01 T00291051  RH  056%=      5-min Rain = 0
KST2 111758Z 34023KT 03/M05 A3007 RMK A01 T00291052  RH  055%=      5-min Rain = 0
KST2 111759Z 35022G27KT 03/M05 A3007 RMK A01 T00291052  RH  055%=      5-min Rain = 0
KST2 111800Z 35018KT 03/M05 A3007 RMK A01 T00301051  RH  055%=      5-min Rain = 0
KST2 111801Z 35021KT 03/M05 A3007 RMK A01 T00321049  RH  055%=      5-min Rain = 0
KST2 111802Z 34022KT 03/M05 A3007 RMK A01 T00331050  RH  055%=      5-min Rain = 0
KST2 111803Z 35018KT 03/M05 A3007 RMK A01 T00331050  RH  055%=      5-min Rain = 0
KST2 111804Z 35020KT 04/M05 A3007 RMK A01 T00351048  RH  055%=      5-min Rain = 0
KST2 111805Z 35019KT 04/M05 A3007 RMK A01 T00361048  RH  054%=      5-min Rain = 0
KST2 111806Z 35020KT 04/M05 A3007 RMK A01 T00371048  RH  054%=      5-min Rain = 0
KST2 111807Z 35022KT 04/M05 A3007 RMK A01 T00371048  RH  054%=      5-min Rain = 0
KST2 111808Z 34022KT 04/M05 A3007 RMK A01 T00371048  RH  054%=      5-min Rain = 0
KST2 111809Z 35021KT 04/M05 A3007 RMK A01 T00381047  RH  054%=      5-min Rain = 0
KST2 111810Z 34026G35KT 04/M04 A3007 RMK A01 T00421044  RH  054%=      5-min Rain = 0
KST2 111811Z 34029KT 05/M05 A3007 RMK A01 T00461046  RH  052%=      5-min Rain = 0
KST2 111812Z 34030G35KT 05/M05 A3007 RMK A01 T00461047  RH  051%=      5-min Rain = 0
KST2 111813Z 34027KT 05/M05 A3007 RMK A01 T00451047  RH  051%=      5-min Rain = 0
KST2 111814Z 34025G32KT 05/M05 A3007 RMK A01 T00471046  RH  051%=      5-min Rain = 0
KST2 111815Z 34028KT 05/M05 A3007 RMK A01 T00491046  RH  050%=      5-min Rain = 0
KST2 111816Z 34026KT 05/M05 A3007 RMK A01 T00481047  RH  050%=      5-min Rain = 0
KST2 111817Z 34025KT 05/M05 A3007 RMK A01 T00471047  RH  050%=      5-min Rain = 0
KST2 111818Z 35027KT 05/M05 A3007 RMK A01 T00501045  RH  050%=      5-min Rain = 0
KST2 111819Z 35026KT 05/M05 A3007 RMK A01 T00501046  RH  050%=      5-min Rain = 0
KST2 111820Z 34025G30KT 05/M05 A3007 RMK A01 T00501046  RH  050%=      5-min Rain = 0
KST2 111821Z 34027G35KT 05/M04 A3007 RMK A01 T00521044  RH  050%=      5-min Rain = 0
KST2 111822Z 34031G36KT 05/M05 A3007 RMK A01 T00531046  RH  049%=      5-min Rain = 0
KST2 111823Z 34030KT 05/M05 A3007 RMK A01 T00511048  RH  049%=      5-min Rain = 0
KST2 111824Z 34028KT 05/M05 A3007 RMK A01 T00501049  RH  049%=      5-min Rain = 0
KST2 111825Z 34026KT 05/M05 A3007 RMK A01 T00491049  RH  049%=      5-min Rain = 0
KST2 111826Z 34027G32KT 05/M05 A3007 RMK A01 T00491050  RH  049%=      5-min Rain = 0
KST2 111827Z 35025KT 05/M05 A3007 RMK A01 T00461052  RH  049%=      5-min Rain = 0
KST2 111828Z 35026KT 05/M05 A3007 RMK A01 T00461050  RH  050%=      5-min Rain = 0
KST2 111829Z 35025KT 05/M05 A3007 RMK A01 T00471050  RH  050%=      5-min Rain = 0
KST2 111830Z 36026G31KT 05/M05 A3007 RMK A01 T00491048  RH  049%=      5-min Rain = 0
KST2 111831Z 35027KT 05/M05 A3007 RMK A01 T00511048  RH  049%=      5-min Rain = 0
KST2 111832Z 34025KT 05/M05 A3007 RMK A01 T00531047  RH  048%=      5-min Rain = 0
KST2 111833Z 34023KT 06/M05 A3007 RMK A01 T00551047  RH  048%=      5-min Rain = 0
KST2 111834Z 34022KT 06/M05 A3007 RMK A01 T00551048  RH  048%=      5-min Rain = 0
KST2 111835Z 35023G28KT 06/M05 A3007 RMK A01 T00561047  RH  047%=      5-min Rain = 0
KST2 111836Z 35022G27KT 06/M05 A3007 RMK A01 T00591046  RH  047%=      5-min Rain = 0
KST2 111837Z 34025KT 06/M05 A3007 RMK A01 T00621045  RH  046%=      5-min Rain = 0
KST2 111838Z 33025KT 06/M05 A3007 RMK A01 T00621047  RH  046%=      5-min Rain = 0
KST2 111839Z 34025G30KT 06/M05 A3007 RMK A01 T00611047  RH  046%=      5-min Rain = 0
KST2 111840Z 35027KT 06/M05 A3007 RMK A01 T00611047  RH  046%=      5-min Rain = 0
KST2 111841Z 35025G31KT 06/M05 A3007 RMK A01 T00591050  RH  045%=      5-min Rain = 0
KST2 111842Z 35031KT 06/M05 A3007 RMK A01 T00561051  RH  046%=      5-min Rain = 0
KST2 111843Z 34029G34KT 06/M05 A3007 RMK A01 T00561050  RH  047%=      5-min Rain = 0
KST2 111844Z 35026G32KT 06/M05 A3007 RMK A01 T00581047  RH  047%=      5-min Rain = 0
KST2 111845Z 34027KT 06/M05 A3007 RMK A01 T00601047  RH  046%=      5-min Rain = 0
KST2 111846Z 35026G31KT 06/M05 A3007 RMK A01 T00601047  RH  046%=      5-min Rain = 0
KST2 111847Z 35026G36KT 06/M05 A3007 RMK A01 T00611047  RH  046%=      5-min Rain = 0
KST2 111848Z 34024G29KT 06/M05 A3007 RMK A01 T00621047  RH  046%=      5-min Rain = 0
KST2 111849Z 33029G35KT 06/M05 A3007 RMK A01 T00611049  RH  045%=      5-min Rain = 0
KST2 111850Z 34026KT 06/M05 A3007 RMK A01 T00581050  RH  046%=      5-min Rain = 0
KST2 111851Z 34027KT 06/M05 A3007 RMK A01 T00571049  RH  046%=      5-min Rain = 0
KST2 111852Z 34024KT 06/M05 A3007 RMK A01 T00571049  RH  046%=      5-min Rain = 0
KST2 111853Z 34024KT 06/M05 A3007 RMK A01 T00591048  RH  046%=      5-min Rain = 0
KST2 111854Z 34020G26KT 06/M05 A3007 RMK A01 T00611047  RH  046%=      5-min Rain = 0
KST2 111855Z 34024KT 06/M05 A3007 RMK A01 T00641046  RH  045%=      5-min Rain = 0
KST2 111856Z 34025KT 06/M05 A3007 RMK A01 T00621048  RH  045%=      5-min Rain = 0
KST2 111857Z 33025KT 06/M05 A3007 RMK A01 T00621048  RH  045%=      5-min Rain = 0
KST2 111858Z 33018KT 06/M05 A3008 RMK A01 T00621048  RH  045%=      5-min Rain = 0
KST2 111859Z 33023G29KT 07/M04 A3008 RMK A01 T00681043  RH  045%=      5-min Rain = 0
KST2 111900Z 33022KT 07/M05 A3008 RMK A01 T00691047  RH  043%=      5-min Rain = 0
KST2 111901Z 33025G31KT 07/M05 A3008 RMK A01 T00681049  RH  043%=      5-min Rain = 0
KST2 111902Z 33029G34KT 07/M05 A3007 RMK A01 T00661051  RH  043%=      5-min Rain = 0
KST2 111903Z 34024KT 06/M06 A3008 RMK A01 T00601055  RH  043%=      5-min Rain = 0
KST2 111904Z 34023G28KT 06/M05 A3008 RMK A01 T00591054  RH  044%=      5-min Rain = 0
KST2 111905Z 33028G33KT 06/M05 A3008 RMK A01 T00611050  RH  045%=      5-min Rain = 0
KST2 111906Z 33029KT 06/M05 A3007 RMK A01 T00631051  RH  044%=      5-min Rain = 0
KST2 111907Z 33028G33KT 06/M05 A3008 RMK A01 T00631053  RH  043%=      5-min Rain = 0
KST2 111908Z 32027G32KT 06/M06 A3008 RMK A01 T00601055  RH  043%=      5-min Rain = 0
KST2 111909Z 33026G31KT 06/M05 A3007 RMK A01 T00601053  RH  044%=      5-min Rain = 0
KST2 111910Z 33029G34KT 06/M05 A3007 RMK A01 T00621052  RH  044%=      5-min Rain = 0
KST2 111911Z 33032KT 06/M05 A3008 RMK A01 T00631052  RH  044%=      5-min Rain = 0
KST2 111912Z 33025G30KT 06/M05 A3008 RMK A01 T00621054  RH  043%=      5-min Rain = 0
KST2 111913Z 33025KT 06/M05 A3008 RMK A01 T00641051  RH  044%=      5-min Rain = 0
KST2 111914Z 33027G32KT 07/M05 A3007 RMK A01 T00651052  RH  043%=      5-min Rain = 0
KST2 111915Z 33028KT 06/M06 A3007 RMK A01 T00621055  RH  043%=      5-min Rain = 0
KST2 111916Z 33026KT 06/M05 A3008 RMK A01 T00611054  RH  043%=      5-min Rain = 0
KST2 111917Z 34027KT 06/M05 A3008 RMK A01 T00611054  RH  043%=      5-min Rain = 0
KST2 111918Z 33024KT 06/M06 A3008 RMK A01 T00601056  RH  043%=      5-min Rain = 0
KST2 111919Z 33025G30KT 06/M06 A3008 RMK A01 T00591056  RH  043%=      5-min Rain = 0
KST2 111920Z 33026G33KT 06/M06 A3007 RMK A01 T00591057  RH  043%=      5-min Rain = 0
KST2 111921Z 33029G34KT 06/M06 A3008 RMK A01 T00591056  RH  043%=      5-min Rain = 0
KST2 111922Z 34029KT 06/M06 A3008 RMK A01 T00601057  RH  043%=      5-min Rain = 0
KST2 111923Z 34028G33KT 06/M06 A3008 RMK A01 T00591059  RH  042%=      5-min Rain = 0
KST2 111924Z 35028KT 06/M06 A3008 RMK A01 T00581060  RH  043%=      5-min Rain = 0
KST2 111925Z 35028KT 06/M06 A3008 RMK A01 T00561061  RH  043%=      5-min Rain = 0
KST2 111926Z 35023KT 06/M06 A3008 RMK A01 T00551060  RH  043%=      5-min Rain = 0
KST2 111927Z 34022G27KT 06/M06 A3008 RMK A01 T00551060  RH  043%=      5-min Rain = 0
KST2 111928Z 35022G27KT 06/M06 A3008 RMK A01 T00561059  RH  043%=      5-min Rain = 0
KST2 111929Z 34020G25KT 06/M06 A3008 RMK A01 T00601057  RH  043%=      5-min Rain = 0
KST2 111930Z 35026KT 06/M06 A3008 RMK A01 T00621059  RH  042%=      5-min Rain = 0
KST2 111931Z 34028KT 06/M06 A3008 RMK A01 T00611061  RH  041%=      5-min Rain = 0
KST2 111932Z 34028KT 06/M06 A3008 RMK A01 T00601062  RH  041%=      5-min Rain = 0
KST2 111933Z 34025KT 06/M06 A3008 RMK A01 T00581063  RH  041%=      5-min Rain = 0
KST2 111934Z 34025KT 06/M06 A3008 RMK A01 T00591062  RH  041%=      5-min Rain = 0
KST2 111935Z 33025KT 06/M06 A3008 RMK A01 T00601063  RH  041%=      5-min Rain = 0
KST2 111936Z 34027KT 06/M06 A3008 RMK A01 T00611062  RH  041%=      5-min Rain = 0
KST2 111937Z 34025KT 06/M06 A3008 RMK A01 T00611063  RH  040%=      5-min Rain = 0
KST2 111938Z 35027KT 06/M06 A3008 RMK A01 T00611063  RH  040%=      5-min Rain = 0
KST2 111939Z 35025KT 06/M07 A3008 RMK A01 T00611065  RH  040%=      5-min Rain = 0
KST2 111940Z 35024KT 06/M07 A3008 RMK A01 T00601065  RH  040%=      5-min Rain = 0
KST2 111941Z 34027KT 06/M07 A3008 RMK A01 T00601065  RH  040%=      5-min Rain = 0
KST2 111942Z 34024G30KT 06/M07 A3008 RMK A01 T00601065  RH  040%=      5-min Rain = 0
KST2 111943Z 33027KT 06/M07 A3008 RMK A01 T00611065  RH  040%=      5-min Rain = 0
KST2 111944Z 34023KT 06/M07 A3008 RMK A01 T00621065  RH  040%=      5-min Rain = 0
KST2 111945Z 34023KT 07/M06 A3008 RMK A01 T00651063  RH  040%=      5-min Rain = 0
KST2 111946Z 35028G36KT 07/M06 A3008 RMK A01 T00671063  RH  039%=      5-min Rain = 0
KST2 111947Z 35027KT 07/M07 A3008 RMK A01 T00671066  RH  038%=      5-min Rain = 0
KST2 111948Z 35025KT 07/M07 A3008 RMK A01 T00671066  RH  038%=      5-min Rain = 0
KST2 111949Z 34026G32KT 07/M07 A3008 RMK A01 T00681066  RH  038%=      5-min Rain = 0
KST2 111950Z 34031KT 07/M07 A3008 RMK A01 T00691066  RH  038%=      5-min Rain = 0
KST2 111951Z 34030G35KT 07/M07 A3008 RMK A01 T00701066  RH  037%=      5-min Rain = 0
KST2 111952Z 34027KT 07/M07 A3008 RMK A01 T00701066  RH  037%=      5-min Rain = 0
KST2 111953Z 34029KT 07/M07 A3008 RMK A01 T00691067  RH  037%=      5-min Rain = 0
KST2 111954Z 34028KT 07/M07 A3008 RMK A01 T00691067  RH  037%=      5-min Rain = 0
KST2 111955Z 35028G34KT 07/M07 A3009 RMK A01 T00701068  RH  037%=      5-min Rain = 0
KST2 111956Z 35033KT 07/M07 A3008 RMK A01 T00691069  RH  037%=      5-min Rain = 0
KST2 111957Z 34029G34KT 07/M07 A3008 RMK A01 T00681069  RH  037%=      5-min Rain = 0
KST2 111958Z 34026G31KT 07/M07 A3009 RMK A01 T00681069  RH  037%=      5-min Rain = 0
KST2 111959Z 34027KT 07/M07 A3008 RMK A01 T00681069  RH  037%=      5-min Rain = 0
KST2 112000Z 35024KT 07/M07 A3008 RMK A01 T00671069  RH  037%=      5-min Rain = 0
KST2 112001Z 35022G27KT 07/M07 A3008 RMK A01 T00681067  RH  037%=      5-min Rain = 0
KST2 112002Z 35025KT 07/M07 A3009 RMK A01 T00711067  RH  037%=      5-min Rain = 0
KST2 112003Z 34025G31KT 07/M07 A3009 RMK A01 T00711070  RH  036%=      5-min Rain = 0
KST2 112004Z 34025G30KT 07/M07 A3008 RMK A01 T00711069  RH  036%=      5-min Rain = 0
KST2 112005Z 35024KT 07/M07 A3009 RMK A01 T00731068  RH  036%=      5-min Rain = 0
KST2 112006Z 36025KT 08/M07 A3009 RMK A01 T00751069  RH  035%=      5-min Rain = 0
KST2 112007Z 36028KT 07/M07 A3009 RMK A01 T00741071  RH  035%=      5-min Rain = 0
KST2 112008Z 35023G30KT 07/M07 A3009 RMK A01 T00731071  RH  035%=      5-min Rain = 0
KST2 112009Z 34022KT 08/M07 A3009 RMK A01 T00761068  RH  035%=      5-min Rain = 0
KST2 112010Z 35023KT 08/M07 A3008 RMK A01 T00771070  RH  034%=      5-min Rain = 0
KST2 112011Z 35025G30KT 08/M07 A3008 RMK A01 T00771070  RH  034%=      5-min Rain = 0
KST2 112012Z 35026KT 08/M07 A3008 RMK A01 T00761074  RH  034%=      5-min Rain = 0
KST2 112013Z 34025KT 08/M07 A3009 RMK A01 T00751074  RH  034%=      5-min Rain = 0
KST2 112014Z 34026KT 08/M07 A3009 RMK A01 T00761074  RH  034%=      5-min Rain = 0
KST2 112015Z 35024KT 08/M07 A3008 RMK A01 T00751074  RH  034%=      5-min Rain = 0
KST2 112016Z 35023KT 07/M07 A3009 RMK A01 T00741074  RH  034%=      5-min Rain = 0
KST2 112017Z 34023KT 08/M07 A3009 RMK A01 T00751073  RH  034%=      5-min Rain = 0
KST2 112018Z 34023KT 08/M07 A3008 RMK A01 T00781071  RH  034%=      5-min Rain = 0
KST2 112019Z 34018KT 08/M07 A3009 RMK A01 T00801071  RH  033%=      5-min Rain = 0
KST2 112020Z 34022G27KT 08/M07 A3008 RMK A01 T00841069  RH  033%=      5-min Rain = 0
KST2 112021Z 33022KT 08/M07 A3008 RMK A01 T00841072  RH  032%=      5-min Rain = 0
KST2 112022Z 34021KT 08/M08 A3008 RMK A01 T00801075  RH  033%=      5-min Rain = 0
KST2 112023Z 35022KT 08/M07 A3009 RMK A01 T00801074  RH  033%=      5-min Rain = 0
KST2 112024Z 35023KT 08/M07 A3009 RMK A01 T00811074  RH  032%=      5-min Rain = 0
KST2 112025Z 35024KT 08/M07 A3009 RMK A01 T00831074  RH  032%=      5-min Rain = 0
KST2 112026Z 35023KT 08/M07 A3009 RMK A01 T00831074  RH  032%=      5-min Rain = 0
KST2 112027Z 34024G29KT 09/M07 A3009 RMK A01 T00851073  RH  032%=      5-min Rain = 0
KST2 112028Z 35028G34KT 09/M08 A3009 RMK A01 T00861076  RH  031%=      5-min Rain = 0
KST2 112029Z 35027KT 09/M08 A3009 RMK A01 T00861078  RH  031%=      5-min Rain = 0
KST2 112030Z 35025KT 09/M08 A3009 RMK A01 T00861078  RH  031%=      5-min Rain = 0
KST2 112031Z 34029KT 09/M08 A3009 RMK A01 T00871077  RH  030%=      5-min Rain = 0
KST2 112032Z 33032KT 09/M08 A3008 RMK A01 T00861081  RH  030%=      5-min Rain = 0
KST2 112033Z 34029KT 09/M08 A3009 RMK A01 T00851084  RH  029%=      5-min Rain = 0
KST2 112034Z 34023G28KT 08/M08 A3009 RMK A01 T00841084  RH  029%=      5-min Rain = 0
KST2 112035Z 34027G33KT 09/M08 A3009 RMK A01 T00871080  RH  030%=      5-min Rain = 0
KST2 112036Z 35032G38KT 09/M08 A3009 RMK A01 T00881084  RH  029%=      5-min Rain = 0
KST2 112037Z 34030KT 09/M09 A3009 RMK A01 T00861086  RH  029%=      5-min Rain = 0
KST2 112038Z 34026G31KT 09/M09 A3009 RMK A01 T00851086  RH  029%=      5-min Rain = 0
KST2 112039Z 35027G32KT 09/M09 A3009 RMK A01 T00861086  RH  029%=      5-min Rain = 0
KST2 112040Z 35027G32KT 09/M09 A301 RMK A01 T00861086  RH  029%=      5-min Rain = 0
KST2 112041Z 35025G30KT 09/M09 A301 RMK A01 T00861085  RH  029%=      5-min Rain = 0
KST2 112042Z 36028KT 09/M08 A301 RMK A01 T00881084  RH  029%=      5-min Rain = 0
KST2 112043Z 35029KT 09/M09 A301 RMK A01 T00871086  RH  028%=      5-min Rain = 0
KST2 112044Z 35026G31KT 09/M09 A301 RMK A01 T00851087  RH  029%=      5-min Rain = 0
KST2 112045Z 35024KT 09/M09 A301 RMK A01 T00861086  RH  029%=      5-min Rain = 0
KST2 112046Z 35021KT 09/M08 A301 RMK A01 T00871084  RH  029%=      5-min Rain = 0
KST2 112047Z 35023KT 09/M08 A301 RMK A01 T00881083  RH  029%=      5-min Rain = 0
KST2 112048Z 35025KT 09/M08 A301 RMK A01 T00891082  RH  029%=      5-min Rain = 0
KST2 112049Z 36026KT 09/M08 A301 RMK A01 T00881083  RH  029%=      5-min Rain = 0
KST2 112050Z 35024KT 09/M08 A301 RMK A01 T00871083  RH  029%=      5-min Rain = 0
KST2 112051Z 35024G34KT 09/M08 A301 RMK A01 T00871082  RH  029%=      5-min Rain = 0
KST2 112052Z 34027KT 09/M08 A301 RMK A01 T00871083  RH  029%=      5-min Rain = 0
KST2 112053Z 34028G33KT 09/M09 A301 RMK A01 T00871085  RH  029%=      5-min Rain = 0
KST2 112054Z 34027KT 09/M09 A301 RMK A01 T00871087  RH  028%=      5-min Rain = 0
KST2 112055Z 33027G35KT 09/M09 A301 RMK A01 T00871089  RH  028%=      5-min Rain = 0
KST2 112056Z 34032KT 09/M09 A301 RMK A01 T00871091  RH  027%=      5-min Rain = 0
KST2 112057Z 34029KT 09/M09 A301 RMK A01 T00871093  RH  027%=      5-min Rain = 0
KST2 112058Z 34032KT 09/M09 A301 RMK A01 T00891093  RH  027%=      5-min Rain = 0
KST2 112059Z 35030KT 09/M09 A301 RMK A01 T00891094  RH  026%=      5-min Rain = 0
KST2 112100Z 35027KT 09/M09 A301 RMK A01 T00881094  RH  026%=      5-min Rain = 0
KST2 112101Z 34028KT 09/M09 A301 RMK A01 T00891094  RH  026%=      5-min Rain = 0
KST2 112102Z 34026KT 09/M09 A301 RMK A01 T00881094  RH  026%=      5-min Rain = 0
KST2 112103Z 34025G30KT 09/M09 A301 RMK A01 T00891093  RH  027%=      5-min Rain = 0
KST2 112104Z 34025G31KT 09/M09 A301 RMK A01 T00891092  RH  027%=      5-min Rain = 0
KST2 112105Z 34026KT 09/M09 A301 RMK A01 T00891091  RH  027%=      5-min Rain = 0
KST2 112106Z 34024KT 09/M09 A3011 RMK A01 T00891092  RH  027%=      5-min Rain = 0
KST2 112107Z 34026KT 09/M09 A3011 RMK A01 T00881092  RH  027%=      5-min Rain = 0
KST2 112108Z 35025KT 09/M09 A3011 RMK A01 T00881090  RH  027%=      5-min Rain = 0
KST2 112109Z 35024G31KT 09/M09 A3011 RMK A01 T00891090  RH  027%=      5-min Rain = 0
KST2 112110Z 34024G30KT 09/M09 A301 RMK A01 T00901092  RH  027%=      5-min Rain = 0
KST2 112111Z 34025G30KT 09/M10 A301 RMK A01 T00901095  RH  026%=      5-min Rain = 0
KST2 112112Z 34025G31KT 09/M09 A301 RMK A01 T00901093  RH  026%=      5-min Rain = 0
KST2 112113Z 34027KT 09/M09 A3011 RMK A01 T00921093  RH  026%=      5-min Rain = 0
KST2 112114Z 34029KT 09/M10 A3011 RMK A01 T00911096  RH  026%=      5-min Rain = 0
KST2 112115Z 34028KT 09/M10 A3011 RMK A01 T00901096  RH  026%=      5-min Rain = 0
KST2 112116Z 34029KT 09/M10 A3011 RMK A01 T00901097  RH  026%=      5-min Rain = 0
KST2 112117Z 34026KT 09/M10 A3011 RMK A01 T00901097  RH  026%=      5-min Rain = 0
KST2 112118Z 34026KT 09/M10 A3011 RMK A01 T00901097  RH  026%=      5-min Rain = 0
KST2 112119Z 35025KT 09/M10 A3011 RMK A01 T00901098  RH  025%=      5-min Rain = 0
KST2 112120Z 34022G28KT 09/M10 A3011 RMK A01 T00901095  RH  026%=      5-min Rain = 0
KST2 112121Z 34029KT 09/M10 A3011 RMK A01 T00921097  RH  025%=      5-min Rain = 0
KST2 112122Z 34028G33KT 09/M10 A3011 RMK A01 T00921097  RH  025%=      5-min Rain = 0
KST2 112123Z 34026KT 09/M10 A3011 RMK A01 T00911097  RH  025%=      5-min Rain = 0
KST2 112124Z 35024KT 09/M10 A3012 RMK A01 T00911096  RH  026%=      5-min Rain = 0
KST2 112125Z 35024KT 09/M10 A3012 RMK A01 T00921096  RH  026%=      5-min Rain = 0
KST2 112126Z 35021KT 09/M10 A3012 RMK A01 T00921095  RH  026%=      5-min Rain = 0
KST2 112127Z 35026G33KT 09/M10 A3012 RMK A01 T00931095  RH  025%=      5-min Rain = 0
KST2 112128Z 35026KT 09/M10 A3012 RMK A01 T00921098  RH  025%=      5-min Rain = 0
KST2 112129Z 35024KT 09/M10 A3012 RMK A01 T00911098  RH  025%=      5-min Rain = 0
KST2 112130Z 36027KT 09/M10 A3012 RMK A01 T00901100  RH  025%=      5-min Rain = 0
KST2 112131Z 36028KT 09/M10 A3012 RMK A01 T00901101  RH  025%=      5-min Rain = 0
KST2 112132Z 36027KT 09/M10 A3012 RMK A01 T00911100  RH  025%=      5-min Rain = 0
KST2 112133Z 36026KT 09/M10 A3012 RMK A01 T00911101  RH  025%=      5-min Rain = 0
KST2 112134Z 36024KT 09/M10 A3012 RMK A01 T00901100  RH  025%=      5-min Rain = 0
KST2 112135Z 01023G28KT 09/M10 A3012 RMK A01 T00911099  RH  025%=      5-min Rain = 0
KST2 112136Z 35024G30KT 09/M10 A3012 RMK A01 T00911101  RH  025%=      5-min Rain = 0
KST2 112137Z 36020KT 09/M10 A3012 RMK A01 T00911100  RH  025%=      5-min Rain = 0
KST2 112138Z 34022KT 09/M10 A3012 RMK A01 T00921097  RH  025%=      5-min Rain = 0
KST2 112139Z 35021KT 09/M10 A3012 RMK A01 T00921096  RH  025%=      5-min Rain = 0
KST2 112140Z 35023KT 09/M10 A3012 RMK A01 T00921095  RH  026%=      5-min Rain = 0
KST2 112141Z 34025KT 09/M10 A3012 RMK A01 T00921096  RH  026%=      5-min Rain = 0
KST2 112142Z 34024G29KT 09/M10 A3012 RMK A01 T00921097  RH  025%=      5-min Rain = 0
KST2 112143Z 34024KT 09/M10 A3012 RMK A01 T00921096  RH  025%=      5-min Rain = 0
KST2 112144Z 35025KT 09/M10 A3012 RMK A01 T00921098  RH  025%=      5-min Rain = 0
KST2 112145Z 34023G29KT 09/M10 A3012 RMK A01 T00911097  RH  025%=      5-min Rain = 0
KST2 112146Z 34027KT 09/M10 A3012 RMK A01 T00911098  RH  025%=      5-min Rain = 0
KST2 112147Z 34025G30KT 09/M10 A3012 RMK A01 T00911098  RH  025%=      5-min Rain = 0
KST2 112148Z 34022KT 09/M10 A3013 RMK A01 T00921097  RH  025%=      5-min Rain = 0
KST2 112149Z 34024KT 09/M10 A3013 RMK A01 T00941096  RH  025%=      5-min Rain = 0
KST2 112150Z 35021G26KT 09/M10 A3013 RMK A01 T00941097  RH  025%=      5-min Rain = 0
KST2 112151Z 34023KT 10/M10 A3013 RMK A01 T00951097  RH  025%=      5-min Rain = 0
KST2 112152Z 34026G33KT 10/M10 A3013 RMK A01 T00951098  RH  025%=      5-min Rain = 0
KST2 112153Z 34031KT 09/M10 A3013 RMK A01 T00941101  RH  024%=      5-min Rain = 0
KST2 112154Z 34033KT 09/M10 A3013 RMK A01 T00931103  RH  024%=      5-min Rain = 0
KST2 112155Z 35030G35KT 09/M10 A3013 RMK A01 T00911104  RH  024%=      5-min Rain = 0
KST2 112156Z 35027G32KT 09/M10 A3013 RMK A01 T00911102  RH  024%=      5-min Rain = 0
KST2 112157Z 35026G31KT 09/M10 A3013 RMK A01 T00911102  RH  024%=      5-min Rain = 0
KST2 112158Z 35026G31KT 09/M10 A3013 RMK A01 T00911101  RH  025%=      5-min Rain = 0
KST2 112159Z 35028KT 09/M10 A3013 RMK A01 T00911102  RH  025%=      5-min Rain = 0
KST2 112200Z 35026KT 09/M10 A3013 RMK A01 T00921102  RH  024%=      5-min Rain = 0
KST2 112201Z 34026KT 09/M10 A3013 RMK A01 T00921101  RH  024%=      5-min Rain = 0
KST2 112202Z 36026G33KT 09/M10 A3013 RMK A01 T00931101  RH  024%=      5-min Rain = 0
KST2 112203Z 00027KT 09/M10 A3013 RMK A01 T00931102  RH  024%=      5-min Rain = 0
KST2 112204Z 36028KT 09/M10 A3013 RMK A01 T00921104  RH  024%=      5-min Rain = 0
KST2 112205Z 00028KT 09/M10 A3014 RMK A01 T00911104  RH  024%=      5-min Rain = 0
KST2 112206Z 00028KT 09/M10 A3014 RMK A01 T00911104  RH  024%=      5-min Rain = 0
KST2 112207Z 36024G29KT 09/M10 A3014 RMK A01 T00911103  RH  024%=      5-min Rain = 0
KST2 112208Z 36026KT 09/M10 A3013 RMK A01 T00921102  RH  024%=      5-min Rain = 0
KST2 112209Z 36024G29KT 09/M10 A3014 RMK A01 T00921102  RH  024%=      5-min Rain = 0
KST2 112210Z 35024G29KT 09/M10 A3014 RMK A01 T00931101  RH  024%=      5-min Rain = 0
KST2 112211Z 35027KT 09/M10 A3014 RMK A01 T00931101  RH  024%=      5-min Rain = 0
KST2 112212Z 35024KT 09/M10 A3014 RMK A01 T00931100  RH  024%=      5-min Rain = 0
KST2 112213Z 35022KT 09/M10 A3014 RMK A01 T00921099  RH  025%=      5-min Rain = 0
KST2 112214Z 35021KT 09/M10 A3014 RMK A01 T00931099  RH  025%=      5-min Rain = 0
KST2 112215Z 35023KT 09/M10 A3014 RMK A01 T00931099  RH  025%=      5-min Rain = 0
KST2 112216Z 35022KT 09/M10 A3014 RMK A01 T00931098  RH  025%=      5-min Rain = 0
KST2 112217Z 35020KT 09/M10 A3014 RMK A01 T00931098  RH  025%=      5-min Rain = 0
KST2 112218Z 35023KT 09/M10 A3014 RMK A01 T00941097  RH  025%=      5-min Rain = 0
KST2 112219Z 35020KT 09/M10 A3014 RMK A01 T00931097  RH  025%=      5-min Rain = 0
KST2 112220Z 35019G24KT 09/M10 A3014 RMK A01 T00931096  RH  025%=      5-min Rain = 0
KST2 112221Z 35021KT 09/M10 A3014 RMK A01 T00941095  RH  025%=      5-min Rain = 0
KST2 112222Z 35021KT 09/M10 A3014 RMK A01 T00941095  RH  025%=      5-min Rain = 0
KST2 112223Z 34021KT 09/M09 A3014 RMK A01 T00941093  RH  026%=      5-min Rain = 0
KST2 112224Z 33017KT 10/M09 A3014 RMK A01 T00951092  RH  026%=      5-min Rain = 0
KST2 112225Z 34026KT 10/M09 A3014 RMK A01 T00961092  RH  026%=      5-min Rain = 0
KST2 112226Z 33027KT 10/M09 A3014 RMK A01 T00951094  RH  025%=      5-min Rain = 0
KST2 112227Z 33025KT 09/M10 A3014 RMK A01 T00941096  RH  025%=      5-min Rain = 0
KST2 112228Z 33022KT 09/M10 A3014 RMK A01 T00931095  RH  025%=      5-min Rain = 0
KST2 112229Z 34027G33KT 09/M10 A3014 RMK A01 T00931096  RH  025%=      5-min Rain = 0
KST2 112230Z 34025KT 09/M10 A3014 RMK A01 T00921099  RH  025%=      5-min Rain = 0

Page generated in 0.0325 seconds.